<?xml version="1.0" encoding="UTF-8" standalone="no" ?>
<gpx xmlns="http://www.topografix.com/GPX/1/1" xmlns:xsi="http://www.w3.org/2001/XMLSchema-instance" xsi:schemaLocation="http://www.topografix.com/GPX/1/1 http://www.topografix.com/GPX/1/1/gpx.xsd" version="1.1" creator="VisuGPX - https://www.visugpx.com">
  <metadata>
    <name>Lens Lestang Roybon</name>
    <desc><![CDATA[Lens Lestang Roybon ]]></desc>
  </metadata>
  <trk>
    <name><![CDATA[Lens Lestang Roybon]]></name>
    <trkseg>
      <trkpt lat="45.12024" lon="4.98685">
        <ele>203</ele>
        <time>2009-02-09T12:36:27Z</time>
      </trkpt>
      <trkpt lat="45.1203" lon="4.98682">
        <ele>203</ele>
        <time>2009-02-09T12:36:28Z</time>
      </trkpt>
      <trkpt lat="45.12017" lon="4.98555">
        <ele>204</ele>
        <time>2009-02-09T12:36:42Z</time>
      </trkpt>
      <trkpt lat="45.12018" lon="4.98513">
        <ele>205</ele>
        <time>2009-02-09T12:36:47Z</time>
      </trkpt>
      <trkpt lat="45.1202" lon="4.98488">
        <ele>205</ele>
        <time>2009-02-09T12:36:49Z</time>
      </trkpt>
      <trkpt lat="45.12038" lon="4.98425">
        <ele>205</ele>
        <time>2009-02-09T12:36:57Z</time>
      </trkpt>
      <trkpt lat="45.12051" lon="4.98414">
        <ele>206</ele>
        <time>2009-02-09T12:36:59Z</time>
      </trkpt>
      <trkpt lat="45.12058" lon="4.98398">
        <ele>206</ele>
        <time>2009-02-09T12:37:01Z</time>
      </trkpt>
      <trkpt lat="45.1223" lon="4.98412">
        <ele>209</ele>
        <time>2009-02-09T12:37:27Z</time>
      </trkpt>
      <trkpt lat="45.12334" lon="4.98409">
        <ele>209</ele>
        <time>2009-02-09T12:37:43Z</time>
      </trkpt>
      <trkpt lat="45.12345" lon="4.98402">
        <ele>209</ele>
        <time>2009-02-09T12:37:45Z</time>
      </trkpt>
      <trkpt lat="45.1236" lon="4.98373">
        <ele>212</ele>
        <time>2009-02-09T12:37:49Z</time>
      </trkpt>
      <trkpt lat="45.12378" lon="4.98357">
        <ele>210</ele>
        <time>2009-02-09T12:37:52Z</time>
      </trkpt>
      <trkpt lat="45.12458" lon="4.98307">
        <ele>210</ele>
        <time>2009-02-09T12:38:06Z</time>
      </trkpt>
      <trkpt lat="45.12516" lon="4.98278">
        <ele>212</ele>
        <time>2009-02-09T12:38:15Z</time>
      </trkpt>
      <trkpt lat="45.1261" lon="4.98247">
        <ele>212</ele>
        <time>2009-02-09T12:38:30Z</time>
      </trkpt>
      <trkpt lat="45.12657" lon="4.98238">
        <ele>216</ele>
        <time>2009-02-09T12:38:37Z</time>
      </trkpt>
      <trkpt lat="45.1271" lon="4.98235">
        <ele>219</ele>
        <time>2009-02-09T12:38:45Z</time>
      </trkpt>
      <trkpt lat="45.12803" lon="4.98245">
        <ele>230</ele>
        <time>2009-02-09T12:39:00Z</time>
      </trkpt>
      <trkpt lat="45.12875" lon="4.98263">
        <ele>230</ele>
        <time>2009-02-09T12:39:11Z</time>
      </trkpt>
      <trkpt lat="45.12916" lon="4.98283">
        <ele>232</ele>
        <time>2009-02-09T12:39:18Z</time>
      </trkpt>
      <trkpt lat="45.12951" lon="4.98293">
        <ele>218</ele>
        <time>2009-02-09T12:39:23Z</time>
      </trkpt>
      <trkpt lat="45.1304" lon="4.98299">
        <ele>222</ele>
        <time>2009-02-09T12:39:37Z</time>
      </trkpt>
      <trkpt lat="45.13078" lon="4.98288">
        <ele>239</ele>
        <time>2009-02-09T12:39:43Z</time>
      </trkpt>
      <trkpt lat="45.13125" lon="4.98259">
        <ele>239</ele>
        <time>2009-02-09T12:39:51Z</time>
      </trkpt>
      <trkpt lat="45.13232" lon="4.98209">
        <ele>220</ele>
        <time>2009-02-09T12:40:08Z</time>
      </trkpt>
      <trkpt lat="45.13344" lon="4.98171">
        <ele>233</ele>
        <time>2009-02-09T12:40:26Z</time>
      </trkpt>
      <trkpt lat="45.13461" lon="4.98145">
        <ele>226</ele>
        <time>2009-02-09T12:40:44Z</time>
      </trkpt>
      <trkpt lat="45.13546" lon="4.98117">
        <ele>233</ele>
        <time>2009-02-09T12:40:57Z</time>
      </trkpt>
      <trkpt lat="45.13599" lon="4.9809">
        <ele>233</ele>
        <time>2009-02-09T12:41:06Z</time>
      </trkpt>
      <trkpt lat="45.1365" lon="4.98055">
        <ele>227</ele>
        <time>2009-02-09T12:41:15Z</time>
      </trkpt>
      <trkpt lat="45.13754" lon="4.97995">
        <ele>239</ele>
        <time>2009-02-09T12:41:32Z</time>
      </trkpt>
      <trkpt lat="45.14272" lon="4.97758">
        <ele>249</ele>
        <time>2009-02-09T12:42:55Z</time>
      </trkpt>
      <trkpt lat="45.14347" lon="4.97716">
        <ele>244</ele>
        <time>2009-02-09T12:43:08Z</time>
      </trkpt>
      <trkpt lat="45.14416" lon="4.97664">
        <ele>238</ele>
        <time>2009-02-09T12:43:20Z</time>
      </trkpt>
      <trkpt lat="45.14574" lon="4.97529">
        <ele>242</ele>
        <time>2009-02-09T12:43:48Z</time>
      </trkpt>
      <trkpt lat="45.14661" lon="4.97483">
        <ele>244</ele>
        <time>2009-02-09T12:44:02Z</time>
      </trkpt>
      <trkpt lat="45.14706" lon="4.97469">
        <ele>244</ele>
        <time>2009-02-09T12:44:09Z</time>
      </trkpt>
      <trkpt lat="45.14787" lon="4.97451">
        <ele>263</ele>
        <time>2009-02-09T12:44:22Z</time>
      </trkpt>
      <trkpt lat="45.14938" lon="4.97455">
        <ele>262</ele>
        <time>2009-02-09T12:44:45Z</time>
      </trkpt>
      <trkpt lat="45.1502" lon="4.97447">
        <ele>250</ele>
        <time>2009-02-09T12:44:58Z</time>
      </trkpt>
      <trkpt lat="45.15154" lon="4.97377">
        <ele>245</ele>
        <time>2009-02-09T12:45:20Z</time>
      </trkpt>
      <trkpt lat="45.15414" lon="4.97225">
        <ele>269</ele>
        <time>2009-02-09T12:46:03Z</time>
      </trkpt>
      <trkpt lat="45.15452" lon="4.97213">
        <ele>269</ele>
        <time>2009-02-09T12:46:09Z</time>
      </trkpt>
      <trkpt lat="45.15532" lon="4.97211">
        <ele>275</ele>
        <time>2009-02-09T12:46:21Z</time>
      </trkpt>
      <trkpt lat="45.15552" lon="4.97206">
        <ele>270</ele>
        <time>2009-02-09T12:46:24Z</time>
      </trkpt>
      <trkpt lat="45.15561" lon="4.97195">
        <ele>270</ele>
        <time>2009-02-09T12:46:26Z</time>
      </trkpt>
      <trkpt lat="45.15585" lon="4.97136">
        <ele>270</ele>
        <time>2009-02-09T12:46:33Z</time>
      </trkpt>
      <trkpt lat="45.15642" lon="4.96967">
        <ele>275</ele>
        <time>2009-02-09T12:46:54Z</time>
      </trkpt>
      <trkpt lat="45.15661" lon="4.96929">
        <ele>274</ele>
        <time>2009-02-09T12:46:59Z</time>
      </trkpt>
      <trkpt lat="45.15682" lon="4.96899">
        <ele>274</ele>
        <time>2009-02-09T12:47:03Z</time>
      </trkpt>
      <trkpt lat="45.15801" lon="4.96784">
        <ele>280</ele>
        <time>2009-02-09T12:47:25Z</time>
      </trkpt>
      <trkpt lat="45.15834" lon="4.96758">
        <ele>280</ele>
        <time>2009-02-09T12:47:31Z</time>
      </trkpt>
      <trkpt lat="45.16037" lon="4.9669">
        <ele>277</ele>
        <time>2009-02-09T12:48:03Z</time>
      </trkpt>
      <trkpt lat="45.1606" lon="4.96697">
        <ele>280</ele>
        <time>2009-02-09T12:48:07Z</time>
      </trkpt>
      <trkpt lat="45.16102" lon="4.96735">
        <ele>291</ele>
        <time>2009-02-09T12:48:14Z</time>
      </trkpt>
      <trkpt lat="45.1612" lon="4.96744">
        <ele>291</ele>
        <time>2009-02-09T12:48:17Z</time>
      </trkpt>
      <trkpt lat="45.1617" lon="4.96741">
        <ele>291</ele>
        <time>2009-02-09T12:48:25Z</time>
      </trkpt>
      <trkpt lat="45.16234" lon="4.96703">
        <ele>290</ele>
        <time>2009-02-09T12:48:36Z</time>
      </trkpt>
      <trkpt lat="45.16282" lon="4.96662">
        <ele>290</ele>
        <time>2009-02-09T12:48:44Z</time>
      </trkpt>
      <trkpt lat="45.16293" lon="4.96639">
        <ele>294</ele>
        <time>2009-02-09T12:48:47Z</time>
      </trkpt>
      <trkpt lat="45.16298" lon="4.96533">
        <ele>299</ele>
        <time>2009-02-09T12:48:59Z</time>
      </trkpt>
      <trkpt lat="45.16312" lon="4.96498">
        <ele>299</ele>
        <time>2009-02-09T12:49:03Z</time>
      </trkpt>
      <trkpt lat="45.16329" lon="4.96487">
        <ele>299</ele>
        <time>2009-02-09T12:49:06Z</time>
      </trkpt>
      <trkpt lat="45.16351" lon="4.96486">
        <ele>299</ele>
        <time>2009-02-09T12:49:09Z</time>
      </trkpt>
      <trkpt lat="45.16384" lon="4.96498">
        <ele>308</ele>
        <time>2009-02-09T12:49:15Z</time>
      </trkpt>
      <trkpt lat="45.16416" lon="4.96503">
        <ele>308</ele>
        <time>2009-02-09T12:49:20Z</time>
      </trkpt>
      <trkpt lat="45.16503" lon="4.965">
        <ele>311</ele>
        <time>2009-02-09T12:49:33Z</time>
      </trkpt>
      <trkpt lat="45.1652" lon="4.96507">
        <ele>311</ele>
        <time>2009-02-09T12:49:36Z</time>
      </trkpt>
      <trkpt lat="45.16532" lon="4.96519">
        <ele>311</ele>
        <time>2009-02-09T12:49:38Z</time>
      </trkpt>
      <trkpt lat="45.16543" lon="4.96543">
        <ele>319</ele>
        <time>2009-02-09T12:49:41Z</time>
      </trkpt>
      <trkpt lat="45.16578" lon="4.96646">
        <ele>315</ele>
        <time>2009-02-09T12:49:53Z</time>
      </trkpt>
      <trkpt lat="45.16601" lon="4.96698">
        <ele>315</ele>
        <time>2009-02-09T12:50:00Z</time>
      </trkpt>
      <trkpt lat="45.16615" lon="4.9671">
        <ele>317</ele>
        <time>2009-02-09T12:50:03Z</time>
      </trkpt>
      <trkpt lat="45.16655" lon="4.96711">
        <ele>313</ele>
        <time>2009-02-09T12:50:09Z</time>
      </trkpt>
      <trkpt lat="45.16678" lon="4.9672">
        <ele>313</ele>
        <time>2009-02-09T12:50:12Z</time>
      </trkpt>
      <trkpt lat="45.16785" lon="4.96875">
        <ele>305</ele>
        <time>2009-02-09T12:50:36Z</time>
      </trkpt>
      <trkpt lat="45.16795" lon="4.96883">
        <ele>307</ele>
        <time>2009-02-09T12:50:38Z</time>
      </trkpt>
      <trkpt lat="45.16818" lon="4.96886">
        <ele>307</ele>
        <time>2009-02-09T12:50:41Z</time>
      </trkpt>
      <trkpt lat="45.16847" lon="4.96878">
        <ele>307</ele>
        <time>2009-02-09T12:50:46Z</time>
      </trkpt>
      <trkpt lat="45.16914" lon="4.96837">
        <ele>317</ele>
        <time>2009-02-09T12:50:57Z</time>
      </trkpt>
      <trkpt lat="45.16922" lon="4.96828">
        <ele>317</ele>
        <time>2009-02-09T12:50:58Z</time>
      </trkpt>
      <trkpt lat="45.16926" lon="4.96817">
        <ele>317</ele>
        <time>2009-02-09T12:51:00Z</time>
      </trkpt>
      <trkpt lat="45.16927" lon="4.96782">
        <ele>325</ele>
        <time>2009-02-09T12:51:04Z</time>
      </trkpt>
      <trkpt lat="45.1692" lon="4.96688">
        <ele>333</ele>
        <time>2009-02-09T12:51:14Z</time>
      </trkpt>
      <trkpt lat="45.16926" lon="4.96655">
        <ele>333</ele>
        <time>2009-02-09T12:51:17Z</time>
      </trkpt>
      <trkpt lat="45.16935" lon="4.96637">
        <ele>333</ele>
        <time>2009-02-09T12:51:20Z</time>
      </trkpt>
      <trkpt lat="45.16957" lon="4.96616">
        <ele>339</ele>
        <time>2009-02-09T12:51:24Z</time>
      </trkpt>
      <trkpt lat="45.1698" lon="4.96575">
        <ele>324</ele>
        <time>2009-02-09T12:51:30Z</time>
      </trkpt>
      <trkpt lat="45.1701" lon="4.96451">
        <ele>334</ele>
        <time>2009-02-09T12:51:44Z</time>
      </trkpt>
      <trkpt lat="45.17002" lon="4.96296">
        <ele>332</ele>
        <time>2009-02-09T12:52:01Z</time>
      </trkpt>
      <trkpt lat="45.16984" lon="4.96214">
        <ele>331</ele>
        <time>2009-02-09T12:52:10Z</time>
      </trkpt>
      <trkpt lat="45.16964" lon="4.96179">
        <ele>328</ele>
        <time>2009-02-09T12:52:15Z</time>
      </trkpt>
      <trkpt lat="45.16959" lon="4.96154">
        <ele>328</ele>
        <time>2009-02-09T12:52:18Z</time>
      </trkpt>
      <trkpt lat="45.16966" lon="4.96139">
        <ele>328</ele>
        <time>2009-02-09T12:52:20Z</time>
      </trkpt>
      <trkpt lat="45.16981" lon="4.96128">
        <ele>328</ele>
        <time>2009-02-09T12:52:22Z</time>
      </trkpt>
      <trkpt lat="45.17048" lon="4.96091">
        <ele>319</ele>
        <time>2009-02-09T12:52:33Z</time>
      </trkpt>
      <trkpt lat="45.17229" lon="4.95993">
        <ele>310</ele>
        <time>2009-02-09T12:53:03Z</time>
      </trkpt>
      <trkpt lat="45.17408" lon="4.9594">
        <ele>301</ele>
        <time>2009-02-09T12:53:31Z</time>
      </trkpt>
      <trkpt lat="45.17424" lon="4.95929">
        <ele>301</ele>
        <time>2009-02-09T12:53:34Z</time>
      </trkpt>
      <trkpt lat="45.17439" lon="4.95909">
        <ele>301</ele>
        <time>2009-02-09T12:53:37Z</time>
      </trkpt>
      <trkpt lat="45.17453" lon="4.9587">
        <ele>302</ele>
        <time>2009-02-09T12:53:42Z</time>
      </trkpt>
      <trkpt lat="45.17471" lon="4.95794">
        <ele>286</ele>
        <time>2009-02-09T12:53:50Z</time>
      </trkpt>
      <trkpt lat="45.17484" lon="4.95768">
        <ele>283</ele>
        <time>2009-02-09T12:53:54Z</time>
      </trkpt>
      <trkpt lat="45.17504" lon="4.95743">
        <ele>283</ele>
        <time>2009-02-09T12:53:58Z</time>
      </trkpt>
      <trkpt lat="45.17721" lon="4.95643">
        <ele>269</ele>
        <time>2009-02-09T12:54:33Z</time>
      </trkpt>
      <trkpt lat="45.17757" lon="4.95634">
        <ele>269</ele>
        <time>2009-02-09T12:54:38Z</time>
      </trkpt>
      <trkpt lat="45.17989" lon="4.95624">
        <ele>259</ele>
        <time>2009-02-09T12:55:14Z</time>
      </trkpt>
      <trkpt lat="45.18195" lon="4.95609">
        <ele>255</ele>
        <time>2009-02-09T12:55:46Z</time>
      </trkpt>
      <trkpt lat="45.18332" lon="4.95591">
        <ele>254</ele>
        <time>2009-02-09T12:56:07Z</time>
      </trkpt>
      <trkpt lat="45.18548" lon="4.95543">
        <ele>257</ele>
        <time>2009-02-09T12:56:40Z</time>
      </trkpt>
      <trkpt lat="45.1871" lon="4.95493">
        <ele>258</ele>
        <time>2009-02-09T12:57:06Z</time>
      </trkpt>
      <trkpt lat="45.19031" lon="4.95411">
        <ele>257</ele>
        <time>2009-02-09T12:57:56Z</time>
      </trkpt>
      <trkpt lat="45.19277" lon="4.95371">
        <ele>255</ele>
        <time>2009-02-09T12:58:34Z</time>
      </trkpt>
      <trkpt lat="45.19315" lon="4.95357">
        <ele>257</ele>
        <time>2009-02-09T12:58:40Z</time>
      </trkpt>
      <trkpt lat="45.19506" lon="4.9525">
        <ele>261</ele>
        <time>2009-02-09T12:59:11Z</time>
      </trkpt>
      <trkpt lat="45.19623" lon="4.95176">
        <ele>267</ele>
        <time>2009-02-09T12:59:31Z</time>
      </trkpt>
      <trkpt lat="45.19697" lon="4.95152">
        <ele>261</ele>
        <time>2009-02-09T12:59:43Z</time>
      </trkpt>
      <trkpt lat="45.19764" lon="4.9515">
        <ele>256</ele>
        <time>2009-02-09T12:59:53Z</time>
      </trkpt>
      <trkpt lat="45.1985" lon="4.9514">
        <ele>257</ele>
        <time>2009-02-09T13:00:06Z</time>
      </trkpt>
      <trkpt lat="45.19948" lon="4.95143">
        <ele>255</ele>
        <time>2009-02-09T13:00:21Z</time>
      </trkpt>
      <trkpt lat="45.20433" lon="4.95197">
        <ele>247</ele>
        <time>2009-02-09T13:01:36Z</time>
      </trkpt>
      <trkpt lat="45.20671" lon="4.95209">
        <ele>244</ele>
        <time>2009-02-09T13:02:13Z</time>
      </trkpt>
      <trkpt lat="45.20747" lon="4.9522">
        <ele>242</ele>
        <time>2009-02-09T13:02:24Z</time>
      </trkpt>
      <trkpt lat="45.20835" lon="4.95242">
        <ele>242</ele>
        <time>2009-02-09T13:02:38Z</time>
      </trkpt>
      <trkpt lat="45.20912" lon="4.95247">
        <ele>236</ele>
        <time>2009-02-09T13:02:50Z</time>
      </trkpt>
      <trkpt lat="45.21025" lon="4.95244">
        <ele>234</ele>
        <time>2009-02-09T13:03:07Z</time>
      </trkpt>
      <trkpt lat="45.21056" lon="4.95255">
        <ele>242</ele>
        <time>2009-02-09T13:03:12Z</time>
      </trkpt>
      <trkpt lat="45.2107" lon="4.95271">
        <ele>242</ele>
        <time>2009-02-09T13:03:15Z</time>
      </trkpt>
      <trkpt lat="45.21101" lon="4.95398">
        <ele>243</ele>
        <time>2009-02-09T13:03:29Z</time>
      </trkpt>
      <trkpt lat="45.21112" lon="4.95421">
        <ele>243</ele>
        <time>2009-02-09T13:03:32Z</time>
      </trkpt>
      <trkpt lat="45.21122" lon="4.9543">
        <ele>243</ele>
        <time>2009-02-09T13:03:34Z</time>
      </trkpt>
      <trkpt lat="45.21248" lon="4.95421">
        <ele>250</ele>
        <time>2009-02-09T13:03:54Z</time>
      </trkpt>
      <trkpt lat="45.21323" lon="4.95441">
        <ele>250</ele>
        <time>2009-02-09T13:04:05Z</time>
      </trkpt>
      <trkpt lat="45.21323" lon="4.9544">
        <ele>250</ele>
        <time>2009-02-09T13:04:05Z</time>
      </trkpt>
      <trkpt lat="45.2153" lon="4.95496">
        <ele>247</ele>
        <time>2009-02-09T13:04:38Z</time>
      </trkpt>
      <trkpt lat="45.21571" lon="4.95516">
        <ele>250</ele>
        <time>2009-02-09T13:04:44Z</time>
      </trkpt>
      <trkpt lat="45.22406" lon="4.96168">
        <ele>253</ele>
        <time>2009-02-09T13:07:11Z</time>
      </trkpt>
      <trkpt lat="45.22582" lon="4.96269">
        <ele>254</ele>
        <time>2009-02-09T13:07:40Z</time>
      </trkpt>
      <trkpt lat="45.22483" lon="4.96442">
        <ele>259</ele>
        <time>2009-02-09T13:08:04Z</time>
      </trkpt>
      <trkpt lat="45.22363" lon="4.96653">
        <ele>280</ele>
        <time>2009-02-09T13:08:33Z</time>
      </trkpt>
      <trkpt lat="45.22345" lon="4.96675">
        <ele>280</ele>
        <time>2009-02-09T13:08:37Z</time>
      </trkpt>
      <trkpt lat="45.22321" lon="4.96691">
        <ele>280</ele>
        <time>2009-02-09T13:08:41Z</time>
      </trkpt>
      <trkpt lat="45.22287" lon="4.96696">
        <ele>283</ele>
        <time>2009-02-09T13:08:46Z</time>
      </trkpt>
      <trkpt lat="45.22237" lon="4.96668">
        <ele>283</ele>
        <time>2009-02-09T13:08:54Z</time>
      </trkpt>
      <trkpt lat="45.22214" lon="4.96667">
        <ele>283</ele>
        <time>2009-02-09T13:08:58Z</time>
      </trkpt>
      <trkpt lat="45.22133" lon="4.96733">
        <ele>288</ele>
        <time>2009-02-09T13:09:12Z</time>
      </trkpt>
      <trkpt lat="45.22121" lon="4.96753">
        <ele>287</ele>
        <time>2009-02-09T13:09:15Z</time>
      </trkpt>
      <trkpt lat="45.2212" lon="4.96769">
        <ele>287</ele>
        <time>2009-02-09T13:09:17Z</time>
      </trkpt>
      <trkpt lat="45.22153" lon="4.96825">
        <ele>294</ele>
        <time>2009-02-09T13:09:25Z</time>
      </trkpt>
      <trkpt lat="45.22156" lon="4.96844">
        <ele>294</ele>
        <time>2009-02-09T13:09:27Z</time>
      </trkpt>
      <trkpt lat="45.22125" lon="4.96867">
        <ele>294</ele>
        <time>2009-02-09T13:09:32Z</time>
      </trkpt>
      <trkpt lat="45.2206" lon="4.96885">
        <ele>310</ele>
        <time>2009-02-09T13:09:42Z</time>
      </trkpt>
      <trkpt lat="45.22014" lon="4.96889">
        <ele>313</ele>
        <time>2009-02-09T13:09:49Z</time>
      </trkpt>
      <trkpt lat="45.21968" lon="4.969">
        <ele>313</ele>
        <time>2009-02-09T13:09:57Z</time>
      </trkpt>
      <trkpt lat="45.21955" lon="4.96913">
        <ele>312</ele>
        <time>2009-02-09T13:09:59Z</time>
      </trkpt>
      <trkpt lat="45.21925" lon="4.96958">
        <ele>312</ele>
        <time>2009-02-09T13:10:06Z</time>
      </trkpt>
      <trkpt lat="45.21875" lon="4.97003">
        <ele>322</ele>
        <time>2009-02-09T13:10:15Z</time>
      </trkpt>
      <trkpt lat="45.21866" lon="4.97025">
        <ele>321</ele>
        <time>2009-02-09T13:10:18Z</time>
      </trkpt>
      <trkpt lat="45.21791" lon="4.97306">
        <ele>335</ele>
        <time>2009-02-09T13:10:50Z</time>
      </trkpt>
      <trkpt lat="45.21795" lon="4.97338">
        <ele>331</ele>
        <time>2009-02-09T13:10:54Z</time>
      </trkpt>
      <trkpt lat="45.21823" lon="4.97398">
        <ele>339</ele>
        <time>2009-02-09T13:11:01Z</time>
      </trkpt>
      <trkpt lat="45.21832" lon="4.97459">
        <ele>346</ele>
        <time>2009-02-09T13:11:08Z</time>
      </trkpt>
      <trkpt lat="45.21847" lon="4.97519">
        <ele>346</ele>
        <time>2009-02-09T13:11:15Z</time>
      </trkpt>
      <trkpt lat="45.21847" lon="4.97574">
        <ele>347</ele>
        <time>2009-02-09T13:11:21Z</time>
      </trkpt>
      <trkpt lat="45.21765" lon="4.97987">
        <ele>354</ele>
        <time>2009-02-09T13:12:07Z</time>
      </trkpt>
      <trkpt lat="45.21727" lon="4.98103">
        <ele>347</ele>
        <time>2009-02-09T13:12:21Z</time>
      </trkpt>
      <trkpt lat="45.21727" lon="4.98139">
        <ele>347</ele>
        <time>2009-02-09T13:12:25Z</time>
      </trkpt>
      <trkpt lat="45.21756" lon="4.98382">
        <ele>361</ele>
        <time>2009-02-09T13:12:52Z</time>
      </trkpt>
      <trkpt lat="45.2175" lon="4.98416">
        <ele>361</ele>
        <time>2009-02-09T13:12:56Z</time>
      </trkpt>
      <trkpt lat="45.21724" lon="4.98463">
        <ele>364</ele>
        <time>2009-02-09T13:13:02Z</time>
      </trkpt>
      <trkpt lat="45.21715" lon="4.98493">
        <ele>364</ele>
        <time>2009-02-09T13:13:06Z</time>
      </trkpt>
      <trkpt lat="45.21725" lon="4.98534">
        <ele>364</ele>
        <time>2009-02-09T13:13:10Z</time>
      </trkpt>
      <trkpt lat="45.2176" lon="4.9859">
        <ele>360</ele>
        <time>2009-02-09T13:13:18Z</time>
      </trkpt>
      <trkpt lat="45.2179" lon="4.98612">
        <ele>360</ele>
        <time>2009-02-09T13:13:23Z</time>
      </trkpt>
      <trkpt lat="45.21862" lon="4.98638">
        <ele>352</ele>
        <time>2009-02-09T13:13:35Z</time>
      </trkpt>
      <trkpt lat="45.21889" lon="4.98662">
        <ele>363</ele>
        <time>2009-02-09T13:13:40Z</time>
      </trkpt>
      <trkpt lat="45.21939" lon="4.98727">
        <ele>346</ele>
        <time>2009-02-09T13:13:50Z</time>
      </trkpt>
      <trkpt lat="45.21979" lon="4.98753">
        <ele>359</ele>
        <time>2009-02-09T13:13:57Z</time>
      </trkpt>
      <trkpt lat="45.22085" lon="4.98764">
        <ele>359</ele>
        <time>2009-02-09T13:14:13Z</time>
      </trkpt>
      <trkpt lat="45.22099" lon="4.98768">
        <ele>359</ele>
        <time>2009-02-09T13:14:15Z</time>
      </trkpt>
      <trkpt lat="45.22111" lon="4.98781">
        <ele>359</ele>
        <time>2009-02-09T13:14:18Z</time>
      </trkpt>
      <trkpt lat="45.22135" lon="4.98851">
        <ele>355</ele>
        <time>2009-02-09T13:14:26Z</time>
      </trkpt>
      <trkpt lat="45.22143" lon="4.98893">
        <ele>358</ele>
        <time>2009-02-09T13:14:31Z</time>
      </trkpt>
      <trkpt lat="45.22141" lon="4.98962">
        <ele>361</ele>
        <time>2009-02-09T13:14:38Z</time>
      </trkpt>
      <trkpt lat="45.22116" lon="4.99188">
        <ele>359</ele>
        <time>2009-02-09T13:15:03Z</time>
      </trkpt>
      <trkpt lat="45.22132" lon="4.99234">
        <ele>368</ele>
        <time>2009-02-09T13:15:09Z</time>
      </trkpt>
      <trkpt lat="45.22199" lon="4.9936">
        <ele>357</ele>
        <time>2009-02-09T13:15:26Z</time>
      </trkpt>
      <trkpt lat="45.22291" lon="4.99507">
        <ele>355</ele>
        <time>2009-02-09T13:15:47Z</time>
      </trkpt>
      <trkpt lat="45.2232" lon="4.99561">
        <ele>353</ele>
        <time>2009-02-09T13:15:54Z</time>
      </trkpt>
      <trkpt lat="45.22365" lon="4.99657">
        <ele>348</ele>
        <time>2009-02-09T13:16:07Z</time>
      </trkpt>
      <trkpt lat="45.22385" lon="4.99716">
        <ele>354</ele>
        <time>2009-02-09T13:16:14Z</time>
      </trkpt>
      <trkpt lat="45.22381" lon="4.99734">
        <ele>354</ele>
        <time>2009-02-09T13:16:16Z</time>
      </trkpt>
      <trkpt lat="45.22363" lon="4.99757">
        <ele>353</ele>
        <time>2009-02-09T13:16:20Z</time>
      </trkpt>
      <trkpt lat="45.22263" lon="4.99826">
        <ele>358</ele>
        <time>2009-02-09T13:16:37Z</time>
      </trkpt>
      <trkpt lat="45.22229" lon="4.99859">
        <ele>358</ele>
        <time>2009-02-09T13:16:43Z</time>
      </trkpt>
      <trkpt lat="45.22208" lon="4.99893">
        <ele>353</ele>
        <time>2009-02-09T13:16:48Z</time>
      </trkpt>
      <trkpt lat="45.22203" lon="4.99918">
        <ele>353</ele>
        <time>2009-02-09T13:16:51Z</time>
      </trkpt>
      <trkpt lat="45.22207" lon="4.99942">
        <ele>353</ele>
        <time>2009-02-09T13:16:53Z</time>
      </trkpt>
      <trkpt lat="45.22231" lon="4.99972">
        <ele>367</ele>
        <time>2009-02-09T13:16:58Z</time>
      </trkpt>
      <trkpt lat="45.22434" lon="5.00187">
        <ele>368</ele>
        <time>2009-02-09T13:17:37Z</time>
      </trkpt>
      <trkpt lat="45.22449" lon="5.00209">
        <ele>357</ele>
        <time>2009-02-09T13:17:40Z</time>
      </trkpt>
      <trkpt lat="45.22476" lon="5.00264">
        <ele>378</ele>
        <time>2009-02-09T13:17:48Z</time>
      </trkpt>
      <trkpt lat="45.22501" lon="5.00324">
        <ele>373</ele>
        <time>2009-02-09T13:17:55Z</time>
      </trkpt>
      <trkpt lat="45.22498" lon="5.00368">
        <ele>373</ele>
        <time>2009-02-09T13:18:00Z</time>
      </trkpt>
      <trkpt lat="45.22484" lon="5.00402">
        <ele>377</ele>
        <time>2009-02-09T13:18:04Z</time>
      </trkpt>
      <trkpt lat="45.22414" lon="5.00468">
        <ele>370</ele>
        <time>2009-02-09T13:18:17Z</time>
      </trkpt>
      <trkpt lat="45.2241" lon="5.00499">
        <ele>370</ele>
        <time>2009-02-09T13:18:21Z</time>
      </trkpt>
      <trkpt lat="45.22415" lon="5.00558">
        <ele>369</ele>
        <time>2009-02-09T13:18:27Z</time>
      </trkpt>
      <trkpt lat="45.2241" lon="5.00589">
        <ele>369</ele>
        <time>2009-02-09T13:18:30Z</time>
      </trkpt>
      <trkpt lat="45.22335" lon="5.0068">
        <ele>361</ele>
        <time>2009-02-09T13:18:46Z</time>
      </trkpt>
      <trkpt lat="45.22321" lon="5.00708">
        <ele>361</ele>
        <time>2009-02-09T13:18:49Z</time>
      </trkpt>
      <trkpt lat="45.22322" lon="5.00725">
        <ele>365</ele>
        <time>2009-02-09T13:18:51Z</time>
      </trkpt>
      <trkpt lat="45.22376" lon="5.00775">
        <ele>382</ele>
        <time>2009-02-09T13:19:01Z</time>
      </trkpt>
      <trkpt lat="45.22408" lon="5.00826">
        <ele>372</ele>
        <time>2009-02-09T13:19:08Z</time>
      </trkpt>
      <trkpt lat="45.22468" lon="5.00893">
        <ele>372</ele>
        <time>2009-02-09T13:19:20Z</time>
      </trkpt>
      <trkpt lat="45.22482" lon="5.00903">
        <ele>372</ele>
        <time>2009-02-09T13:19:23Z</time>
      </trkpt>
      <trkpt lat="45.2254" lon="5.00926">
        <ele>372</ele>
        <time>2009-02-09T13:19:32Z</time>
      </trkpt>
      <trkpt lat="45.22615" lon="5.00943">
        <ele>382</ele>
        <time>2009-02-09T13:19:43Z</time>
      </trkpt>
      <trkpt lat="45.22676" lon="5.00946">
        <ele>382</ele>
        <time>2009-02-09T13:19:53Z</time>
      </trkpt>
      <trkpt lat="45.22834" lon="5.0089">
        <ele>369</ele>
        <time>2009-02-09T13:20:18Z</time>
      </trkpt>
      <trkpt lat="45.22868" lon="5.00877">
        <ele>369</ele>
        <time>2009-02-09T13:20:23Z</time>
      </trkpt>
      <trkpt lat="45.22929" lon="5.00855">
        <ele>376</ele>
        <time>2009-02-09T13:20:33Z</time>
      </trkpt>
      <trkpt lat="45.2296" lon="5.00857">
        <ele>371</ele>
        <time>2009-02-09T13:20:38Z</time>
      </trkpt>
      <trkpt lat="45.23221" lon="5.00919">
        <ele>351</ele>
        <time>2009-02-09T13:21:18Z</time>
      </trkpt>
      <trkpt lat="45.23292" lon="5.00947">
        <ele>349</ele>
        <time>2009-02-09T13:21:30Z</time>
      </trkpt>
      <trkpt lat="45.2353" lon="5.00988">
        <ele>358</ele>
        <time>2009-02-09T13:22:06Z</time>
      </trkpt>
      <trkpt lat="45.23582" lon="5.01018">
        <ele>359</ele>
        <time>2009-02-09T13:22:15Z</time>
      </trkpt>
      <trkpt lat="45.23608" lon="5.01026">
        <ele>359</ele>
        <time>2009-02-09T13:22:19Z</time>
      </trkpt>
      <trkpt lat="45.23883" lon="5.01087">
        <ele>364</ele>
        <time>2009-02-09T13:23:02Z</time>
      </trkpt>
      <trkpt lat="45.24138" lon="5.01041">
        <ele>350</ele>
        <time>2009-02-09T13:23:41Z</time>
      </trkpt>
      <trkpt lat="45.24201" lon="5.01023">
        <ele>350</ele>
        <time>2009-02-09T13:23:51Z</time>
      </trkpt>
      <trkpt lat="45.24213" lon="5.01007">
        <ele>341</ele>
        <time>2009-02-09T13:23:54Z</time>
      </trkpt>
      <trkpt lat="45.24216" lon="5.0098">
        <ele>341</ele>
        <time>2009-02-09T13:23:57Z</time>
      </trkpt>
      <trkpt lat="45.24205" lon="5.00916">
        <ele>352</ele>
        <time>2009-02-09T13:24:04Z</time>
      </trkpt>
      <trkpt lat="45.24206" lon="5.00904">
        <ele>352</ele>
        <time>2009-02-09T13:24:05Z</time>
      </trkpt>
      <trkpt lat="45.24212" lon="5.00886">
        <ele>340</ele>
        <time>2009-02-09T13:24:07Z</time>
      </trkpt>
      <trkpt lat="45.24223" lon="5.00885">
        <ele>340</ele>
        <time>2009-02-09T13:24:09Z</time>
      </trkpt>
      <trkpt lat="45.24231" lon="5.00897">
        <ele>340</ele>
        <time>2009-02-09T13:24:11Z</time>
      </trkpt>
      <trkpt lat="45.24247" lon="5.00977">
        <ele>341</ele>
        <time>2009-02-09T13:24:20Z</time>
      </trkpt>
      <trkpt lat="45.24263" lon="5.01019">
        <ele>341</ele>
        <time>2009-02-09T13:24:25Z</time>
      </trkpt>
      <trkpt lat="45.24282" lon="5.01036">
        <ele>341</ele>
        <time>2009-02-09T13:24:28Z</time>
      </trkpt>
      <trkpt lat="45.24363" lon="5.01041">
        <ele>329</ele>
        <time>2009-02-09T13:24:41Z</time>
      </trkpt>
      <trkpt lat="45.24378" lon="5.01047">
        <ele>325</ele>
        <time>2009-02-09T13:24:43Z</time>
      </trkpt>
      <trkpt lat="45.24398" lon="5.01061">
        <ele>325</ele>
        <time>2009-02-09T13:24:46Z</time>
      </trkpt>
      <trkpt lat="45.24419" lon="5.01086">
        <ele>325</ele>
        <time>2009-02-09T13:24:51Z</time>
      </trkpt>
      <trkpt lat="45.24429" lon="5.01106">
        <ele>325</ele>
        <time>2009-02-09T13:24:53Z</time>
      </trkpt>
      <trkpt lat="45.2443" lon="5.01129">
        <ele>321</ele>
        <time>2009-02-09T13:24:56Z</time>
      </trkpt>
      <trkpt lat="45.24426" lon="5.01142">
        <ele>321</ele>
        <time>2009-02-09T13:24:57Z</time>
      </trkpt>
      <trkpt lat="45.24418" lon="5.01155">
        <ele>321</ele>
        <time>2009-02-09T13:24:59Z</time>
      </trkpt>
      <trkpt lat="45.24388" lon="5.01183">
        <ele>321</ele>
        <time>2009-02-09T13:25:05Z</time>
      </trkpt>
      <trkpt lat="45.24339" lon="5.0127">
        <ele>320</ele>
        <time>2009-02-09T13:25:17Z</time>
      </trkpt>
      <trkpt lat="45.24306" lon="5.01306">
        <ele>310</ele>
        <time>2009-02-09T13:25:23Z</time>
      </trkpt>
      <trkpt lat="45.243" lon="5.01323">
        <ele>310</ele>
        <time>2009-02-09T13:25:25Z</time>
      </trkpt>
      <trkpt lat="45.24302" lon="5.01338">
        <ele>310</ele>
        <time>2009-02-09T13:25:27Z</time>
      </trkpt>
      <trkpt lat="45.2432" lon="5.01371">
        <ele>310</ele>
        <time>2009-02-09T13:25:31Z</time>
      </trkpt>
      <trkpt lat="45.2436" lon="5.014">
        <ele>312</ele>
        <time>2009-02-09T13:25:38Z</time>
      </trkpt>
      <trkpt lat="45.244" lon="5.014">
        <ele>310</ele>
        <time>2009-02-09T13:25:44Z</time>
      </trkpt>
      <trkpt lat="45.24471" lon="5.01388">
        <ele>303</ele>
        <time>2009-02-09T13:25:55Z</time>
      </trkpt>
      <trkpt lat="45.24483" lon="5.01393">
        <ele>303</ele>
        <time>2009-02-09T13:25:57Z</time>
      </trkpt>
      <trkpt lat="45.24489" lon="5.01401">
        <ele>303</ele>
        <time>2009-02-09T13:25:59Z</time>
      </trkpt>
      <trkpt lat="45.24517" lon="5.01506">
        <ele>310</ele>
        <time>2009-02-09T13:26:11Z</time>
      </trkpt>
      <trkpt lat="45.24543" lon="5.01779">
        <ele>303</ele>
        <time>2009-02-09T13:26:40Z</time>
      </trkpt>
      <trkpt lat="45.2455" lon="5.01816">
        <ele>305</ele>
        <time>2009-02-09T13:26:45Z</time>
      </trkpt>
      <trkpt lat="45.24736" lon="5.02339">
        <ele>306</ele>
        <time>2009-02-09T13:27:48Z</time>
      </trkpt>
      <trkpt lat="45.24808" lon="5.02506">
        <ele>309</ele>
        <time>2009-02-09T13:28:09Z</time>
      </trkpt>
      <trkpt lat="45.24823" lon="5.02531">
        <ele>309</ele>
        <time>2009-02-09T13:28:13Z</time>
      </trkpt>
      <trkpt lat="45.2484" lon="5.02543">
        <ele>317</ele>
        <time>2009-02-09T13:28:16Z</time>
      </trkpt>
      <trkpt lat="45.24842" lon="5.02529">
        <ele>309</ele>
        <time>2009-02-09T13:28:17Z</time>
      </trkpt>
      <trkpt lat="45.24856" lon="5.02513">
        <ele>309</ele>
        <time>2009-02-09T13:28:20Z</time>
      </trkpt>
      <trkpt lat="45.24872" lon="5.02512">
        <ele>309</ele>
        <time>2009-02-09T13:28:22Z</time>
      </trkpt>
      <trkpt lat="45.24897" lon="5.02526">
        <ele>304</ele>
        <time>2009-02-09T13:28:26Z</time>
      </trkpt>
      <trkpt lat="45.24913" lon="5.02547">
        <ele>307</ele>
        <time>2009-02-09T13:28:30Z</time>
      </trkpt>
      <trkpt lat="45.24924" lon="5.02574">
        <ele>307</ele>
        <time>2009-02-09T13:28:33Z</time>
      </trkpt>
      <trkpt lat="45.24934" lon="5.02637">
        <ele>309</ele>
        <time>2009-02-09T13:28:40Z</time>
      </trkpt>
      <trkpt lat="45.24945" lon="5.02669">
        <ele>309</ele>
        <time>2009-02-09T13:28:44Z</time>
      </trkpt>
      <trkpt lat="45.24963" lon="5.02701">
        <ele>304</ele>
        <time>2009-02-09T13:28:48Z</time>
      </trkpt>
      <trkpt lat="45.25058" lon="5.02804">
        <ele>297</ele>
        <time>2009-02-09T13:29:07Z</time>
      </trkpt>
      <trkpt lat="45.25086" lon="5.02814">
        <ele>297</ele>
        <time>2009-02-09T13:29:11Z</time>
      </trkpt>
      <trkpt lat="45.2511" lon="5.02813">
        <ele>297</ele>
        <time>2009-02-09T13:29:15Z</time>
      </trkpt>
      <trkpt lat="45.25138" lon="5.02788">
        <ele>299</ele>
        <time>2009-02-09T13:29:20Z</time>
      </trkpt>
      <trkpt lat="45.25462" lon="5.02422">
        <ele>305</ele>
        <time>2009-02-09T13:30:23Z</time>
      </trkpt>
      <trkpt lat="45.25474" lon="5.02429">
        <ele>305</ele>
        <time>2009-02-09T13:30:25Z</time>
      </trkpt>
      <trkpt lat="45.25592" lon="5.02674">
        <ele>305</ele>
        <time>2009-02-09T13:30:58Z</time>
      </trkpt>
      <trkpt lat="45.25624" lon="5.02712">
        <ele>300</ele>
        <time>2009-02-09T13:31:04Z</time>
      </trkpt>
      <trkpt lat="45.25712" lon="5.02793">
        <ele>317</ele>
        <time>2009-02-09T13:31:20Z</time>
      </trkpt>
      <trkpt lat="45.2571" lon="5.02809">
        <ele>317</ele>
        <time>2009-02-09T13:31:22Z</time>
      </trkpt>
      <trkpt lat="45.25718" lon="5.02821">
        <ele>317</ele>
        <time>2009-02-09T13:31:24Z</time>
      </trkpt>
      <trkpt lat="45.2573" lon="5.0282">
        <ele>317</ele>
        <time>2009-02-09T13:31:25Z</time>
      </trkpt>
      <trkpt lat="45.25736" lon="5.02807">
        <ele>317</ele>
        <time>2009-02-09T13:31:27Z</time>
      </trkpt>
      <trkpt lat="45.25824" lon="5.02873">
        <ele>340</ele>
        <time>2009-02-09T13:31:42Z</time>
      </trkpt>
      <trkpt lat="45.25898" lon="5.02899">
        <ele>328</ele>
        <time>2009-02-09T13:31:54Z</time>
      </trkpt>
      <trkpt lat="45.25955" lon="5.02909">
        <ele>328</ele>
        <time>2009-02-09T13:32:03Z</time>
      </trkpt>
      <trkpt lat="45.26009" lon="5.029">
        <ele>332</ele>
        <time>2009-02-09T13:32:11Z</time>
      </trkpt>
      <trkpt lat="45.26078" lon="5.02883">
        <ele>332</ele>
        <time>2009-02-09T13:32:22Z</time>
      </trkpt>
      <trkpt lat="45.26115" lon="5.02882">
        <ele>332</ele>
        <time>2009-02-09T13:32:28Z</time>
      </trkpt>
      <trkpt lat="45.26256" lon="5.02939">
        <ele>348</ele>
        <time>2009-02-09T13:32:50Z</time>
      </trkpt>
      <trkpt lat="45.26282" lon="5.02944">
        <ele>348</ele>
        <time>2009-02-09T13:32:54Z</time>
      </trkpt>
      <trkpt lat="45.26436" lon="5.02907">
        <ele>357</ele>
        <time>2009-02-09T13:33:18Z</time>
      </trkpt>
      <trkpt lat="45.26536" lon="5.02889">
        <ele>361</ele>
        <time>2009-02-09T13:33:34Z</time>
      </trkpt>
      <trkpt lat="45.26586" lon="5.02895">
        <ele>372</ele>
        <time>2009-02-09T13:33:41Z</time>
      </trkpt>
      <trkpt lat="45.26806" lon="5.03018">
        <ele>390</ele>
        <time>2009-02-09T13:34:18Z</time>
      </trkpt>
      <trkpt lat="45.26976" lon="5.03087">
        <ele>402</ele>
        <time>2009-02-09T13:34:45Z</time>
      </trkpt>
      <trkpt lat="45.27051" lon="5.03128">
        <ele>407</ele>
        <time>2009-02-09T13:34:57Z</time>
      </trkpt>
      <trkpt lat="45.27133" lon="5.03181">
        <ele>421</ele>
        <time>2009-02-09T13:35:11Z</time>
      </trkpt>
      <trkpt lat="45.27191" lon="5.0323">
        <ele>411</ele>
        <time>2009-02-09T13:35:21Z</time>
      </trkpt>
      <trkpt lat="45.27204" lon="5.03249">
        <ele>411</ele>
        <time>2009-02-09T13:35:24Z</time>
      </trkpt>
      <trkpt lat="45.27212" lon="5.03276">
        <ele>422</ele>
        <time>2009-02-09T13:35:27Z</time>
      </trkpt>
      <trkpt lat="45.27221" lon="5.03362">
        <ele>419</ele>
        <time>2009-02-09T13:35:37Z</time>
      </trkpt>
      <trkpt lat="45.27225" lon="5.0338">
        <ele>412</ele>
        <time>2009-02-09T13:35:39Z</time>
      </trkpt>
      <trkpt lat="45.27237" lon="5.03401">
        <ele>412</ele>
        <time>2009-02-09T13:35:42Z</time>
      </trkpt>
      <trkpt lat="45.27284" lon="5.0344">
        <ele>412</ele>
        <time>2009-02-09T13:35:50Z</time>
      </trkpt>
      <trkpt lat="45.27362" lon="5.03495">
        <ele>418</ele>
        <time>2009-02-09T13:36:03Z</time>
      </trkpt>
      <trkpt lat="45.27393" lon="5.0351">
        <ele>428</ele>
        <time>2009-02-09T13:36:08Z</time>
      </trkpt>
      <trkpt lat="45.27501" lon="5.03505">
        <ele>428</ele>
        <time>2009-02-09T13:36:25Z</time>
      </trkpt>
      <trkpt lat="45.28186" lon="5.03429">
        <ele>421</ele>
        <time>2009-02-09T13:38:10Z</time>
      </trkpt>
      <trkpt lat="45.28216" lon="5.03437">
        <ele>421</ele>
        <time>2009-02-09T13:38:15Z</time>
      </trkpt>
      <trkpt lat="45.28232" lon="5.03447">
        <ele>421</ele>
        <time>2009-02-09T13:38:18Z</time>
      </trkpt>
      <trkpt lat="45.2831" lon="5.03516">
        <ele>419</ele>
        <time>2009-02-09T13:38:32Z</time>
      </trkpt>
      <trkpt lat="45.28329" lon="5.03528">
        <ele>419</ele>
        <time>2009-02-09T13:38:35Z</time>
      </trkpt>
      <trkpt lat="45.28602" lon="5.03574">
        <ele>406</ele>
        <time>2009-02-09T13:39:17Z</time>
      </trkpt>
      <trkpt lat="45.28617" lon="5.03595">
        <ele>406</ele>
        <time>2009-02-09T13:39:21Z</time>
      </trkpt>
      <trkpt lat="45.28623" lon="5.03613">
        <ele>406</ele>
        <time>2009-02-09T13:39:23Z</time>
      </trkpt>
      <trkpt lat="45.28625" lon="5.03649">
        <ele>389</ele>
        <time>2009-02-09T13:39:27Z</time>
      </trkpt>
      <trkpt lat="45.28613" lon="5.03685">
        <ele>407</ele>
        <time>2009-02-09T13:39:31Z</time>
      </trkpt>
      <trkpt lat="45.28562" lon="5.03798">
        <ele>388</ele>
        <time>2009-02-09T13:39:45Z</time>
      </trkpt>
      <trkpt lat="45.28505" lon="5.03883">
        <ele>399</ele>
        <time>2009-02-09T13:39:58Z</time>
      </trkpt>
      <trkpt lat="45.28501" lon="5.03903">
        <ele>399</ele>
        <time>2009-02-09T13:40:00Z</time>
      </trkpt>
      <trkpt lat="45.28504" lon="5.03918">
        <ele>399</ele>
        <time>2009-02-09T13:40:02Z</time>
      </trkpt>
      <trkpt lat="45.2853" lon="5.03922">
        <ele>399</ele>
        <time>2009-02-09T13:40:06Z</time>
      </trkpt>
      <trkpt lat="45.28594" lon="5.03884">
        <ele>396</ele>
        <time>2009-02-09T13:40:17Z</time>
      </trkpt>
      <trkpt lat="45.28632" lon="5.03867">
        <ele>376</ele>
        <time>2009-02-09T13:40:23Z</time>
      </trkpt>
      <trkpt lat="45.28702" lon="5.03852">
        <ele>376</ele>
        <time>2009-02-09T13:40:34Z</time>
      </trkpt>
      <trkpt lat="45.28816" lon="5.03796">
        <ele>371</ele>
        <time>2009-02-09T13:40:52Z</time>
      </trkpt>
      <trkpt lat="45.28853" lon="5.03788">
        <ele>357</ele>
        <time>2009-02-09T13:40:58Z</time>
      </trkpt>
      <trkpt lat="45.28875" lon="5.03793">
        <ele>371</ele>
        <time>2009-02-09T13:41:01Z</time>
      </trkpt>
      <trkpt lat="45.28884" lon="5.038">
        <ele>358</ele>
        <time>2009-02-09T13:41:03Z</time>
      </trkpt>
      <trkpt lat="45.28914" lon="5.03841">
        <ele>358</ele>
        <time>2009-02-09T13:41:09Z</time>
      </trkpt>
      <trkpt lat="45.28968" lon="5.0395">
        <ele>343</ele>
        <time>2009-02-09T13:41:24Z</time>
      </trkpt>
      <trkpt lat="45.28984" lon="5.03999">
        <ele>348</ele>
        <time>2009-02-09T13:41:30Z</time>
      </trkpt>
      <trkpt lat="45.28983" lon="5.04044">
        <ele>345</ele>
        <time>2009-02-09T13:41:34Z</time>
      </trkpt>
      <trkpt lat="45.28976" lon="5.04076">
        <ele>345</ele>
        <time>2009-02-09T13:41:38Z</time>
      </trkpt>
      <trkpt lat="45.28965" lon="5.04105">
        <ele>345</ele>
        <time>2009-02-09T13:41:42Z</time>
      </trkpt>
      <trkpt lat="45.28943" lon="5.04143">
        <ele>350</ele>
        <time>2009-02-09T13:41:47Z</time>
      </trkpt>
      <trkpt lat="45.28871" lon="5.04231">
        <ele>346</ele>
        <time>2009-02-09T13:42:01Z</time>
      </trkpt>
      <trkpt lat="45.28843" lon="5.04249">
        <ele>346</ele>
        <time>2009-02-09T13:42:06Z</time>
      </trkpt>
      <trkpt lat="45.28783" lon="5.04266">
        <ele>352</ele>
        <time>2009-02-09T13:42:16Z</time>
      </trkpt>
      <trkpt lat="45.28772" lon="5.04276">
        <ele>352</ele>
        <time>2009-02-09T13:42:18Z</time>
      </trkpt>
      <trkpt lat="45.2876" lon="5.04327">
        <ele>337</ele>
        <time>2009-02-09T13:42:23Z</time>
      </trkpt>
      <trkpt lat="45.28765" lon="5.04363">
        <ele>337</ele>
        <time>2009-02-09T13:42:27Z</time>
      </trkpt>
      <trkpt lat="45.2878" lon="5.04371">
        <ele>337</ele>
        <time>2009-02-09T13:42:30Z</time>
      </trkpt>
      <trkpt lat="45.28804" lon="5.0437">
        <ele>331</ele>
        <time>2009-02-09T13:42:33Z</time>
      </trkpt>
      <trkpt lat="45.29043" lon="5.04283">
        <ele>315</ele>
        <time>2009-02-09T13:43:11Z</time>
      </trkpt>
      <trkpt lat="45.29158" lon="5.04271">
        <ele>310</ele>
        <time>2009-02-09T13:43:29Z</time>
      </trkpt>
      <trkpt lat="45.29165" lon="5.04279">
        <ele>310</ele>
        <time>2009-02-09T13:43:30Z</time>
      </trkpt>
      <trkpt lat="45.29134" lon="5.04668">
        <ele>311</ele>
        <time>2009-02-09T13:44:13Z</time>
      </trkpt>
      <trkpt lat="45.29134" lon="5.04754">
        <ele>310</ele>
        <time>2009-02-09T13:44:22Z</time>
      </trkpt>
      <trkpt lat="45.2915" lon="5.04881">
        <ele>314</ele>
        <time>2009-02-09T13:44:36Z</time>
      </trkpt>
      <trkpt lat="45.29162" lon="5.04938">
        <ele>314</ele>
        <time>2009-02-09T13:44:42Z</time>
      </trkpt>
      <trkpt lat="45.2922" lon="5.05125">
        <ele>311</ele>
        <time>2009-02-09T13:45:04Z</time>
      </trkpt>
      <trkpt lat="45.29242" lon="5.05209">
        <ele>320</ele>
        <time>2009-02-09T13:45:14Z</time>
      </trkpt>
      <trkpt lat="45.29258" lon="5.05292">
        <ele>326</ele>
        <time>2009-02-09T13:45:23Z</time>
      </trkpt>
      <trkpt lat="45.29258" lon="5.0534">
        <ele>326</ele>
        <time>2009-02-09T13:45:29Z</time>
      </trkpt>
      <trkpt lat="45.29254" lon="5.05358">
        <ele>326</ele>
        <time>2009-02-09T13:45:31Z</time>
      </trkpt>
      <trkpt lat="45.29228" lon="5.05415">
        <ele>324</ele>
        <time>2009-02-09T13:45:38Z</time>
      </trkpt>
      <trkpt lat="45.29216" lon="5.05429">
        <ele>324</ele>
        <time>2009-02-09T13:45:40Z</time>
      </trkpt>
      <trkpt lat="45.29172" lon="5.05461">
        <ele>327</ele>
        <time>2009-02-09T13:45:48Z</time>
      </trkpt>
      <trkpt lat="45.29073" lon="5.05512">
        <ele>333</ele>
        <time>2009-02-09T13:46:04Z</time>
      </trkpt>
      <trkpt lat="45.2898" lon="5.05522">
        <ele>340</ele>
        <time>2009-02-09T13:46:18Z</time>
      </trkpt>
      <trkpt lat="45.28952" lon="5.0552">
        <ele>347</ele>
        <time>2009-02-09T13:46:23Z</time>
      </trkpt>
      <trkpt lat="45.2872" lon="5.05481">
        <ele>354</ele>
        <time>2009-02-09T13:46:59Z</time>
      </trkpt>
      <trkpt lat="45.28648" lon="5.0548">
        <ele>360</ele>
        <time>2009-02-09T13:47:10Z</time>
      </trkpt>
      <trkpt lat="45.28575" lon="5.05497">
        <ele>363</ele>
        <time>2009-02-09T13:47:21Z</time>
      </trkpt>
      <trkpt lat="45.28479" lon="5.05536">
        <ele>368</ele>
        <time>2009-02-09T13:47:36Z</time>
      </trkpt>
      <trkpt lat="45.28445" lon="5.05561">
        <ele>378</ele>
        <time>2009-02-09T13:47:42Z</time>
      </trkpt>
      <trkpt lat="45.28431" lon="5.05582">
        <ele>378</ele>
        <time>2009-02-09T13:47:45Z</time>
      </trkpt>
      <trkpt lat="45.28431" lon="5.05608">
        <ele>378</ele>
        <time>2009-02-09T13:47:48Z</time>
      </trkpt>
      <trkpt lat="45.28434" lon="5.05614">
        <ele>378</ele>
        <time>2009-02-09T13:47:49Z</time>
      </trkpt>
      <trkpt lat="45.28442" lon="5.05616">
        <ele>378</ele>
        <time>2009-02-09T13:47:50Z</time>
      </trkpt>
      <trkpt lat="45.28463" lon="5.05613">
        <ele>376</ele>
        <time>2009-02-09T13:47:53Z</time>
      </trkpt>
      <trkpt lat="45.28528" lon="5.05586">
        <ele>376</ele>
        <time>2009-02-09T13:48:04Z</time>
      </trkpt>
      <trkpt lat="45.28575" lon="5.05581">
        <ele>381</ele>
        <time>2009-02-09T13:48:11Z</time>
      </trkpt>
      <trkpt lat="45.28724" lon="5.05605">
        <ele>371</ele>
        <time>2009-02-09T13:48:34Z</time>
      </trkpt>
      <trkpt lat="45.28738" lon="5.05613">
        <ele>371</ele>
        <time>2009-02-09T13:48:36Z</time>
      </trkpt>
      <trkpt lat="45.28741" lon="5.05625">
        <ele>392</ele>
        <time>2009-02-09T13:48:38Z</time>
      </trkpt>
      <trkpt lat="45.28739" lon="5.05632">
        <ele>392</ele>
        <time>2009-02-09T13:48:39Z</time>
      </trkpt>
      <trkpt lat="45.28732" lon="5.05636">
        <ele>392</ele>
        <time>2009-02-09T13:48:40Z</time>
      </trkpt>
      <trkpt lat="45.28665" lon="5.0563">
        <ele>401</ele>
        <time>2009-02-09T13:48:50Z</time>
      </trkpt>
      <trkpt lat="45.28532" lon="5.05667">
        <ele>403</ele>
        <time>2009-02-09T13:49:11Z</time>
      </trkpt>
      <trkpt lat="45.28499" lon="5.05685">
        <ele>403</ele>
        <time>2009-02-09T13:49:16Z</time>
      </trkpt>
      <trkpt lat="45.28481" lon="5.05702">
        <ele>403</ele>
        <time>2009-02-09T13:49:20Z</time>
      </trkpt>
      <trkpt lat="45.28469" lon="5.05721">
        <ele>421</ele>
        <time>2009-02-09T13:49:22Z</time>
      </trkpt>
      <trkpt lat="45.28463" lon="5.05754">
        <ele>421</ele>
        <time>2009-02-09T13:49:26Z</time>
      </trkpt>
      <trkpt lat="45.28454" lon="5.0586">
        <ele>405</ele>
        <time>2009-02-09T13:49:37Z</time>
      </trkpt>
      <trkpt lat="45.28422" lon="5.05939">
        <ele>416</ele>
        <time>2009-02-09T13:49:47Z</time>
      </trkpt>
      <trkpt lat="45.28417" lon="5.06024">
        <ele>425</ele>
        <time>2009-02-09T13:49:57Z</time>
      </trkpt>
      <trkpt lat="45.28408" lon="5.06059">
        <ele>430</ele>
        <time>2009-02-09T13:50:01Z</time>
      </trkpt>
      <trkpt lat="45.28373" lon="5.06123">
        <ele>426</ele>
        <time>2009-02-09T13:50:09Z</time>
      </trkpt>
      <trkpt lat="45.28339" lon="5.06177">
        <ele>430</ele>
        <time>2009-02-09T13:50:17Z</time>
      </trkpt>
      <trkpt lat="45.283" lon="5.06226">
        <ele>439</ele>
        <time>2009-02-09T13:50:25Z</time>
      </trkpt>
      <trkpt lat="45.28269" lon="5.0628">
        <ele>436</ele>
        <time>2009-02-09T13:50:33Z</time>
      </trkpt>
      <trkpt lat="45.28104" lon="5.06719">
        <ele>450</ele>
        <time>2009-02-09T13:51:26Z</time>
      </trkpt>
      <trkpt lat="45.2808" lon="5.06799">
        <ele>450</ele>
        <time>2009-02-09T13:51:36Z</time>
      </trkpt>
      <trkpt lat="45.28052" lon="5.06965">
        <ele>445</ele>
        <time>2009-02-09T13:51:54Z</time>
      </trkpt>
      <trkpt lat="45.28031" lon="5.07007">
        <ele>448</ele>
        <time>2009-02-09T13:52:00Z</time>
      </trkpt>
      <trkpt lat="45.28017" lon="5.07021">
        <ele>448</ele>
        <time>2009-02-09T13:52:02Z</time>
      </trkpt>
      <trkpt lat="45.27973" lon="5.07055">
        <ele>447</ele>
        <time>2009-02-09T13:52:10Z</time>
      </trkpt>
      <trkpt lat="45.27907" lon="5.07095">
        <ele>448</ele>
        <time>2009-02-09T13:52:21Z</time>
      </trkpt>
      <trkpt lat="45.27887" lon="5.07121">
        <ele>448</ele>
        <time>2009-02-09T13:52:25Z</time>
      </trkpt>
      <trkpt lat="45.27869" lon="5.07227">
        <ele>434</ele>
        <time>2009-02-09T13:52:37Z</time>
      </trkpt>
      <trkpt lat="45.27839" lon="5.07312">
        <ele>433</ele>
        <time>2009-02-09T13:52:47Z</time>
      </trkpt>
      <trkpt lat="45.27833" lon="5.0734">
        <ele>433</ele>
        <time>2009-02-09T13:52:51Z</time>
      </trkpt>
      <trkpt lat="45.27851" lon="5.07424">
        <ele>427</ele>
        <time>2009-02-09T13:53:00Z</time>
      </trkpt>
      <trkpt lat="45.27847" lon="5.07461">
        <ele>427</ele>
        <time>2009-02-09T13:53:04Z</time>
      </trkpt>
      <trkpt lat="45.27828" lon="5.07527">
        <ele>427</ele>
        <time>2009-02-09T13:53:12Z</time>
      </trkpt>
      <trkpt lat="45.27826" lon="5.07556">
        <ele>426</ele>
        <time>2009-02-09T13:53:15Z</time>
      </trkpt>
      <trkpt lat="45.27829" lon="5.0762">
        <ele>426</ele>
        <time>2009-02-09T13:53:22Z</time>
      </trkpt>
      <trkpt lat="45.27842" lon="5.0765">
        <ele>417</ele>
        <time>2009-02-09T13:53:26Z</time>
      </trkpt>
      <trkpt lat="45.27877" lon="5.07688">
        <ele>425</ele>
        <time>2009-02-09T13:53:32Z</time>
      </trkpt>
      <trkpt lat="45.27948" lon="5.07727">
        <ele>413</ele>
        <time>2009-02-09T13:53:44Z</time>
      </trkpt>
      <trkpt lat="45.27965" lon="5.0775">
        <ele>424</ele>
        <time>2009-02-09T13:53:48Z</time>
      </trkpt>
      <trkpt lat="45.2796" lon="5.07765">
        <ele>424</ele>
        <time>2009-02-09T13:53:49Z</time>
      </trkpt>
      <trkpt lat="45.27943" lon="5.0778">
        <ele>413</ele>
        <time>2009-02-09T13:53:53Z</time>
      </trkpt>
      <trkpt lat="45.27775" lon="5.07886">
        <ele>397</ele>
        <time>2009-02-09T13:54:21Z</time>
      </trkpt>
      <trkpt lat="45.2776" lon="5.07903">
        <ele>397</ele>
        <time>2009-02-09T13:54:24Z</time>
      </trkpt>
      <trkpt lat="45.27754" lon="5.07917">
        <ele>397</ele>
        <time>2009-02-09T13:54:25Z</time>
      </trkpt>
      <trkpt lat="45.27744" lon="5.07961">
        <ele>401</ele>
        <time>2009-02-09T13:54:30Z</time>
      </trkpt>
      <trkpt lat="45.27737" lon="5.08018">
        <ele>401</ele>
        <time>2009-02-09T13:54:37Z</time>
      </trkpt>
      <trkpt lat="45.27734" lon="5.08111">
        <ele>399</ele>
        <time>2009-02-09T13:54:47Z</time>
      </trkpt>
      <trkpt lat="45.27713" lon="5.08214">
        <ele>394</ele>
        <time>2009-02-09T13:54:58Z</time>
      </trkpt>
      <trkpt lat="45.27692" lon="5.08372">
        <ele>380</ele>
        <time>2009-02-09T13:55:16Z</time>
      </trkpt>
      <trkpt lat="45.27655" lon="5.08508">
        <ele>377</ele>
        <time>2009-02-09T13:55:31Z</time>
      </trkpt>
      <trkpt lat="45.2765" lon="5.08538">
        <ele>377</ele>
        <time>2009-02-09T13:55:35Z</time>
      </trkpt>
      <trkpt lat="45.27643" lon="5.08927">
        <ele>386</ele>
        <time>2009-02-09T13:56:17Z</time>
      </trkpt>
      <trkpt lat="45.27628" lon="5.09005">
        <ele>387</ele>
        <time>2009-02-09T13:56:26Z</time>
      </trkpt>
      <trkpt lat="45.27595" lon="5.09095">
        <ele>377</ele>
        <time>2009-02-09T13:56:37Z</time>
      </trkpt>
      <trkpt lat="45.27533" lon="5.09151">
        <ele>384</ele>
        <time>2009-02-09T13:56:48Z</time>
      </trkpt>
      <trkpt lat="45.27434" lon="5.09225">
        <ele>397</ele>
        <time>2009-02-09T13:57:05Z</time>
      </trkpt>
      <trkpt lat="45.27386" lon="5.09298">
        <ele>398</ele>
        <time>2009-02-09T13:57:16Z</time>
      </trkpt>
      <trkpt lat="45.27359" lon="5.09357">
        <ele>408</ele>
        <time>2009-02-09T13:57:23Z</time>
      </trkpt>
      <trkpt lat="45.27335" lon="5.09433">
        <ele>410</ele>
        <time>2009-02-09T13:57:32Z</time>
      </trkpt>
      <trkpt lat="45.2731" lon="5.09565">
        <ele>413</ele>
        <time>2009-02-09T13:57:47Z</time>
      </trkpt>
      <trkpt lat="45.27293" lon="5.09629">
        <ele>415</ele>
        <time>2009-02-09T13:57:54Z</time>
      </trkpt>
      <trkpt lat="45.27189" lon="5.09825">
        <ele>440</ele>
        <time>2009-02-09T13:58:21Z</time>
      </trkpt>
      <trkpt lat="45.27094" lon="5.10024">
        <ele>450</ele>
        <time>2009-02-09T13:58:47Z</time>
      </trkpt>
      <trkpt lat="45.27019" lon="5.1018">
        <ele>454</ele>
        <time>2009-02-09T13:59:07Z</time>
      </trkpt>
      <trkpt lat="45.2705" lon="5.10195">
        <ele>446</ele>
        <time>2009-02-09T13:59:12Z</time>
      </trkpt>
      <trkpt lat="45.27057" lon="5.10208">
        <ele>446</ele>
        <time>2009-02-09T13:59:14Z</time>
      </trkpt>
      <trkpt lat="45.27058" lon="5.10278">
        <ele>445</ele>
        <time>2009-02-09T13:59:22Z</time>
      </trkpt>
      <trkpt lat="45.27051" lon="5.10438">
        <ele>445</ele>
        <time>2009-02-09T13:59:39Z</time>
      </trkpt>
      <trkpt lat="45.27036" lon="5.10576">
        <ele>457</ele>
        <time>2009-02-09T13:59:54Z</time>
      </trkpt>
      <trkpt lat="45.26989" lon="5.10595">
        <ele>457</ele>
        <time>2009-02-09T14:00:02Z</time>
      </trkpt>
      <trkpt lat="45.26991" lon="5.10686">
        <ele>457</ele>
        <time>2009-02-09T14:00:11Z</time>
      </trkpt>
      <trkpt lat="45.26988" lon="5.10735">
        <ele>457</ele>
        <time>2009-02-09T14:00:17Z</time>
      </trkpt>
      <trkpt lat="45.26957" lon="5.10874">
        <ele>454</ele>
        <time>2009-02-09T14:00:33Z</time>
      </trkpt>
      <trkpt lat="45.26941" lon="5.10932">
        <ele>459</ele>
        <time>2009-02-09T14:00:39Z</time>
      </trkpt>
      <trkpt lat="45.26822" lon="5.112">
        <ele>459</ele>
        <time>2009-02-09T14:01:14Z</time>
      </trkpt>
      <trkpt lat="45.2676" lon="5.1142">
        <ele>448</ele>
        <time>2009-02-09T14:01:39Z</time>
      </trkpt>
      <trkpt lat="45.26735" lon="5.11589">
        <ele>455</ele>
        <time>2009-02-09T14:01:58Z</time>
      </trkpt>
      <trkpt lat="45.26708" lon="5.11866">
        <ele>431</ele>
        <time>2009-02-09T14:02:28Z</time>
      </trkpt>
      <trkpt lat="45.26642" lon="5.12128">
        <ele>445</ele>
        <time>2009-02-09T14:02:58Z</time>
      </trkpt>
      <trkpt lat="45.26572" lon="5.12374">
        <ele>426</ele>
        <time>2009-02-09T14:03:27Z</time>
      </trkpt>
      <trkpt lat="45.26506" lon="5.12642">
        <ele>418</ele>
        <time>2009-02-09T14:03:57Z</time>
      </trkpt>
      <trkpt lat="45.26474" lon="5.12742">
        <ele>421</ele>
        <time>2009-02-09T14:04:09Z</time>
      </trkpt>
      <trkpt lat="45.26448" lon="5.12816">
        <ele>413</ele>
        <time>2009-02-09T14:04:18Z</time>
      </trkpt>
      <trkpt lat="45.26409" lon="5.12908">
        <ele>418</ele>
        <time>2009-02-09T14:04:30Z</time>
      </trkpt>
      <trkpt lat="45.26362" lon="5.1308">
        <ele>410</ele>
        <time>2009-02-09T14:04:50Z</time>
      </trkpt>
      <trkpt lat="45.2634" lon="5.13132">
        <ele>412</ele>
        <time>2009-02-09T14:04:56Z</time>
      </trkpt>
      <trkpt lat="45.26306" lon="5.13185">
        <ele>412</ele>
        <time>2009-02-09T14:05:04Z</time>
      </trkpt>
      <trkpt lat="45.26285" lon="5.13231">
        <ele>406</ele>
        <time>2009-02-09T14:05:10Z</time>
      </trkpt>
      <trkpt lat="45.26273" lon="5.13334">
        <ele>407</ele>
        <time>2009-02-09T14:05:21Z</time>
      </trkpt>
      <trkpt lat="45.26266" lon="5.13352">
        <ele>407</ele>
        <time>2009-02-09T14:05:23Z</time>
      </trkpt>
      <trkpt lat="45.26253" lon="5.13374">
        <ele>407</ele>
        <time>2009-02-09T14:05:27Z</time>
      </trkpt>
      <trkpt lat="45.2619" lon="5.13454">
        <ele>401</ele>
        <time>2009-02-09T14:05:40Z</time>
      </trkpt>
      <trkpt lat="45.2617" lon="5.13495">
        <ele>405</ele>
        <time>2009-02-09T14:05:45Z</time>
      </trkpt>
      <trkpt lat="45.26103" lon="5.13754">
        <ele>403</ele>
        <time>2009-02-09T14:06:15Z</time>
      </trkpt>
      <trkpt lat="45.2607" lon="5.13864">
        <ele>404</ele>
        <time>2009-02-09T14:06:28Z</time>
      </trkpt>
      <trkpt lat="45.2604" lon="5.13987">
        <ele>400</ele>
        <time>2009-02-09T14:06:42Z</time>
      </trkpt>
      <trkpt lat="45.26032" lon="5.14043">
        <ele>399</ele>
        <time>2009-02-09T14:06:48Z</time>
      </trkpt>
      <trkpt lat="45.26039" lon="5.14099">
        <ele>399</ele>
        <time>2009-02-09T14:06:54Z</time>
      </trkpt>
      <trkpt lat="45.26056" lon="5.14171">
        <ele>408</ele>
        <time>2009-02-09T14:07:02Z</time>
      </trkpt>
      <trkpt lat="45.26061" lon="5.14232">
        <ele>410</ele>
        <time>2009-02-09T14:07:09Z</time>
      </trkpt>
      <trkpt lat="45.26031" lon="5.14463">
        <ele>408</ele>
        <time>2009-02-09T14:07:34Z</time>
      </trkpt>
      <trkpt lat="45.26008" lon="5.14533">
        <ele>408</ele>
        <time>2009-02-09T14:07:43Z</time>
      </trkpt>
      <trkpt lat="45.26002" lon="5.14564">
        <ele>411</ele>
        <time>2009-02-09T14:07:46Z</time>
      </trkpt>
      <trkpt lat="45.25999" lon="5.14639">
        <ele>411</ele>
        <time>2009-02-09T14:07:54Z</time>
      </trkpt>
      <trkpt lat="45.26003" lon="5.14722">
        <ele>411</ele>
        <time>2009-02-09T14:08:03Z</time>
      </trkpt>
      <trkpt lat="45.25996" lon="5.14787">
        <ele>411</ele>
        <time>2009-02-09T14:08:10Z</time>
      </trkpt>
      <trkpt lat="45.25965" lon="5.14893">
        <ele>424</ele>
        <time>2009-02-09T14:08:23Z</time>
      </trkpt>
      <trkpt lat="45.25937" lon="5.14955">
        <ele>409</ele>
        <time>2009-02-09T14:08:31Z</time>
      </trkpt>
      <trkpt lat="45.25859" lon="5.15071">
        <ele>410</ele>
        <time>2009-02-09T14:08:48Z</time>
      </trkpt>
      <trkpt lat="45.25821" lon="5.15149">
        <ele>412</ele>
        <time>2009-02-09T14:08:58Z</time>
      </trkpt>
      <trkpt lat="45.25776" lon="5.15212">
        <ele>412</ele>
        <time>2009-02-09T14:09:08Z</time>
      </trkpt>
      <trkpt lat="45.25746" lon="5.15293">
        <ele>414</ele>
        <time>2009-02-09T14:09:18Z</time>
      </trkpt>
      <trkpt lat="45.25728" lon="5.15385">
        <ele>416</ele>
        <time>2009-02-09T14:09:28Z</time>
      </trkpt>
      <trkpt lat="45.25727" lon="5.1556">
        <ele>416</ele>
        <time>2009-02-09T14:09:47Z</time>
      </trkpt>
      <trkpt lat="45.25724" lon="5.15588">
        <ele>416</ele>
        <time>2009-02-09T14:09:50Z</time>
      </trkpt>
      <trkpt lat="45.25646" lon="5.15972">
        <ele>423</ele>
        <time>2009-02-09T14:10:33Z</time>
      </trkpt>
      <trkpt lat="45.25643" lon="5.16004">
        <ele>423</ele>
        <time>2009-02-09T14:10:37Z</time>
      </trkpt>
      <trkpt lat="45.25645" lon="5.16045">
        <ele>425</ele>
        <time>2009-02-09T14:10:41Z</time>
      </trkpt>
      <trkpt lat="45.25658" lon="5.16135">
        <ele>427</ele>
        <time>2009-02-09T14:10:51Z</time>
      </trkpt>
      <trkpt lat="45.25666" lon="5.16238">
        <ele>426</ele>
        <time>2009-02-09T14:11:02Z</time>
      </trkpt>
      <trkpt lat="45.25658" lon="5.16415">
        <ele>425</ele>
        <time>2009-02-09T14:11:21Z</time>
      </trkpt>
      <trkpt lat="45.25659" lon="5.16467">
        <ele>426</ele>
        <time>2009-02-09T14:11:27Z</time>
      </trkpt>
      <trkpt lat="45.25699" lon="5.16683">
        <ele>428</ele>
        <time>2009-02-09T14:11:51Z</time>
      </trkpt>
      <trkpt lat="45.2572" lon="5.16931">
        <ele>436</ele>
        <time>2009-02-09T14:12:18Z</time>
      </trkpt>
      <trkpt lat="45.25696" lon="5.17145">
        <ele>430</ele>
        <time>2009-02-09T14:12:42Z</time>
      </trkpt>
      <trkpt lat="45.25676" lon="5.17281">
        <ele>432</ele>
        <time>2009-02-09T14:12:57Z</time>
      </trkpt>
      <trkpt lat="45.25676" lon="5.17387">
        <ele>433</ele>
        <time>2009-02-09T14:13:08Z</time>
      </trkpt>
      <trkpt lat="45.25687" lon="5.17493">
        <ele>435</ele>
        <time>2009-02-09T14:13:20Z</time>
      </trkpt>
      <trkpt lat="45.257" lon="5.17569">
        <ele>436</ele>
        <time>2009-02-09T14:13:28Z</time>
      </trkpt>
      <trkpt lat="45.25727" lon="5.17675">
        <ele>438</ele>
        <time>2009-02-09T14:13:40Z</time>
      </trkpt>
      <trkpt lat="45.2576" lon="5.17789">
        <ele>439</ele>
        <time>2009-02-09T14:13:54Z</time>
      </trkpt>
      <trkpt lat="45.25839" lon="5.18008">
        <ele>440</ele>
        <time>2009-02-09T14:14:20Z</time>
      </trkpt>
      <trkpt lat="45.25844" lon="5.18095">
        <ele>441</ele>
        <time>2009-02-09T14:14:30Z</time>
      </trkpt>
      <trkpt lat="45.25845" lon="5.18396">
        <ele>444</ele>
        <time>2009-02-09T14:15:02Z</time>
      </trkpt>
      <trkpt lat="45.25848" lon="5.18431">
        <ele>444</ele>
        <time>2009-02-09T14:15:06Z</time>
      </trkpt>
      <trkpt lat="45.2588" lon="5.18561">
        <ele>450</ele>
        <time>2009-02-09T14:15:21Z</time>
      </trkpt>
      <trkpt lat="45.25901" lon="5.18708">
        <ele>448</ele>
        <time>2009-02-09T14:15:37Z</time>
      </trkpt>
      <trkpt lat="45.25919" lon="5.18799">
        <ele>447</ele>
        <time>2009-02-09T14:15:47Z</time>
      </trkpt>
      <trkpt lat="45.26067" lon="5.19301">
        <ele>461</ele>
        <time>2009-02-09T14:16:46Z</time>
      </trkpt>
      <trkpt lat="45.26095" lon="5.19431">
        <ele>458</ele>
        <time>2009-02-09T14:17:01Z</time>
      </trkpt>
      <trkpt lat="45.26104" lon="5.19504">
        <ele>458</ele>
        <time>2009-02-09T14:17:09Z</time>
      </trkpt>
      <trkpt lat="45.26111" lon="5.19616">
        <ele>459</ele>
        <time>2009-02-09T14:17:21Z</time>
      </trkpt>
      <trkpt lat="45.26121" lon="5.19673">
        <ele>459</ele>
        <time>2009-02-09T14:17:27Z</time>
      </trkpt>
      <trkpt lat="45.2614" lon="5.19737">
        <ele>470</ele>
        <time>2009-02-09T14:17:35Z</time>
      </trkpt>
      <trkpt lat="45.26265" lon="5.20505">
        <ele>469</ele>
        <time>2009-02-09T14:19:00Z</time>
      </trkpt>
      <trkpt lat="45.26299" lon="5.21137">
        <ele>480</ele>
        <time>2009-02-09T14:20:08Z</time>
      </trkpt>
      <trkpt lat="45.26295" lon="5.21167">
        <ele>480</ele>
        <time>2009-02-09T14:20:12Z</time>
      </trkpt>
      <trkpt lat="45.26215" lon="5.21483">
        <ele>479</ele>
        <time>2009-02-09T14:20:48Z</time>
      </trkpt>
      <trkpt lat="45.26208" lon="5.21531">
        <ele>473</ele>
        <time>2009-02-09T14:20:53Z</time>
      </trkpt>
      <trkpt lat="45.26174" lon="5.21914">
        <ele>479</ele>
        <time>2009-02-09T14:21:35Z</time>
      </trkpt>
      <trkpt lat="45.26169" lon="5.22138">
        <ele>482</ele>
        <time>2009-02-09T14:21:59Z</time>
      </trkpt>
      <trkpt lat="45.26181" lon="5.22254">
        <ele>483</ele>
        <time>2009-02-09T14:22:12Z</time>
      </trkpt>
      <trkpt lat="45.26201" lon="5.2237">
        <ele>484</ele>
        <time>2009-02-09T14:22:25Z</time>
      </trkpt>
      <trkpt lat="45.26203" lon="5.22402">
        <ele>485</ele>
        <time>2009-02-09T14:22:28Z</time>
      </trkpt>
      <trkpt lat="45.262" lon="5.22436">
        <ele>485</ele>
        <time>2009-02-09T14:22:32Z</time>
      </trkpt>
      <trkpt lat="45.26176" lon="5.22552">
        <ele>492</ele>
        <time>2009-02-09T14:22:45Z</time>
      </trkpt>
      <trkpt lat="45.25995" lon="5.23184">
        <ele>500</ele>
        <time>2009-02-09T14:23:59Z</time>
      </trkpt>
      <trkpt lat="45.2598" lon="5.23266">
        <ele>499</ele>
        <time>2009-02-09T14:24:08Z</time>
      </trkpt>
      <trkpt lat="45.25979" lon="5.23467">
        <ele>502</ele>
        <time>2009-02-09T14:24:30Z</time>
      </trkpt>
      <trkpt lat="45.25983" lon="5.23644">
        <ele>495</ele>
        <time>2009-02-09T14:24:49Z</time>
      </trkpt>
      <trkpt lat="45.26006" lon="5.23768">
        <ele>495</ele>
        <time>2009-02-09T14:25:03Z</time>
      </trkpt>
      <trkpt lat="45.26003" lon="5.23781">
        <ele>495</ele>
        <time>2009-02-09T14:25:04Z</time>
      </trkpt>
      <trkpt lat="45.25992" lon="5.238">
        <ele>496</ele>
        <time>2009-02-09T14:25:07Z</time>
      </trkpt>
      <trkpt lat="45.25956" lon="5.23834">
        <ele>497</ele>
        <time>2009-02-09T14:25:13Z</time>
      </trkpt>
      <trkpt lat="45.25945" lon="5.23852">
        <ele>497</ele>
        <time>2009-02-09T14:25:16Z</time>
      </trkpt>
      <trkpt lat="45.25844" lon="5.24126">
        <ele>506</ele>
        <time>2009-02-09T14:25:49Z</time>
      </trkpt>
      <trkpt lat="45.25775" lon="5.24244">
        <ele>504</ele>
        <time>2009-02-09T14:26:06Z</time>
      </trkpt>
      <trkpt lat="45.25701" lon="5.24403">
        <ele>510</ele>
        <time>2009-02-09T14:26:27Z</time>
      </trkpt>
      <trkpt lat="45.25703" lon="5.24426">
        <ele>510</ele>
        <time>2009-02-09T14:26:29Z</time>
      </trkpt>
      <trkpt lat="45.2566" lon="5.24457">
        <ele>510</ele>
        <time>2009-02-09T14:26:36Z</time>
      </trkpt>
      <trkpt lat="45.25559" lon="5.24567">
        <ele>525</ele>
        <time>2009-02-09T14:26:56Z</time>
      </trkpt>
      <trkpt lat="45.25497" lon="5.24615">
        <ele>518</ele>
        <time>2009-02-09T14:27:07Z</time>
      </trkpt>
      <trkpt lat="45.25296" lon="5.24726">
        <ele>522</ele>
        <time>2009-02-09T14:27:40Z</time>
      </trkpt>
      <trkpt lat="45.25275" lon="5.24731">
        <ele>520</ele>
        <time>2009-02-09T14:27:43Z</time>
      </trkpt>
      <trkpt lat="45.25218" lon="5.24728">
        <ele>520</ele>
        <time>2009-02-09T14:27:52Z</time>
      </trkpt>
      <trkpt lat="45.25188" lon="5.24737">
        <ele>523</ele>
        <time>2009-02-09T14:27:57Z</time>
      </trkpt>
      <trkpt lat="45.25055" lon="5.24813">
        <ele>524</ele>
        <time>2009-02-09T14:28:19Z</time>
      </trkpt>
      <trkpt lat="45.24973" lon="5.2487">
        <ele>519</ele>
        <time>2009-02-09T14:28:33Z</time>
      </trkpt>
      <trkpt lat="45.24956" lon="5.24877">
        <ele>528</ele>
        <time>2009-02-09T14:28:35Z</time>
      </trkpt>
      <trkpt lat="45.24916" lon="5.24892">
        <ele>528</ele>
        <time>2009-02-09T14:28:42Z</time>
      </trkpt>
      <trkpt lat="45.24836" lon="5.24911">
        <ele>524</ele>
        <time>2009-02-09T14:28:54Z</time>
      </trkpt>
      <trkpt lat="45.24777" lon="5.24917">
        <ele>523</ele>
        <time>2009-02-09T14:29:03Z</time>
      </trkpt>
      <trkpt lat="45.24756" lon="5.24913">
        <ele>523</ele>
        <time>2009-02-09T14:29:06Z</time>
      </trkpt>
      <trkpt lat="45.24613" lon="5.24855">
        <ele>528</ele>
        <time>2009-02-09T14:29:29Z</time>
      </trkpt>
      <trkpt lat="45.24568" lon="5.2485">
        <ele>528</ele>
        <time>2009-02-09T14:29:36Z</time>
      </trkpt>
      <trkpt lat="45.24444" lon="5.24925">
        <ele>537</ele>
        <time>2009-02-09T14:29:57Z</time>
      </trkpt>
      <trkpt lat="45.24378" lon="5.24954">
        <ele>537</ele>
        <time>2009-02-09T14:30:08Z</time>
      </trkpt>
      <trkpt lat="45.24267" lon="5.24978">
        <ele>535</ele>
        <time>2009-02-09T14:30:25Z</time>
      </trkpt>
      <trkpt lat="45.24227" lon="5.24985">
        <ele>535</ele>
        <time>2009-02-09T14:30:31Z</time>
      </trkpt>
      <trkpt lat="45.24179" lon="5.24984">
        <ele>534</ele>
        <time>2009-02-09T14:30:38Z</time>
      </trkpt>
      <trkpt lat="45.24142" lon="5.24973">
        <ele>534</ele>
        <time>2009-02-09T14:30:44Z</time>
      </trkpt>
      <trkpt lat="45.24002" lon="5.24816">
        <ele>540</ele>
        <time>2009-02-09T14:31:11Z</time>
      </trkpt>
      <trkpt lat="45.23933" lon="5.24753">
        <ele>542</ele>
        <time>2009-02-09T14:31:24Z</time>
      </trkpt>
      <trkpt lat="45.23903" lon="5.24734">
        <ele>542</ele>
        <time>2009-02-09T14:31:29Z</time>
      </trkpt>
      <trkpt lat="45.2379" lon="5.24679">
        <ele>547</ele>
        <time>2009-02-09T14:31:47Z</time>
      </trkpt>
      <trkpt lat="45.23745" lon="5.24643">
        <ele>547</ele>
        <time>2009-02-09T14:31:55Z</time>
      </trkpt>
      <trkpt lat="45.23706" lon="5.24601">
        <ele>547</ele>
        <time>2009-02-09T14:32:03Z</time>
      </trkpt>
      <trkpt lat="45.23612" lon="5.24476">
        <ele>549</ele>
        <time>2009-02-09T14:32:23Z</time>
      </trkpt>
      <trkpt lat="45.23574" lon="5.24433">
        <ele>557</ele>
        <time>2009-02-09T14:32:30Z</time>
      </trkpt>
      <trkpt lat="45.23536" lon="5.2441">
        <ele>555</ele>
        <time>2009-02-09T14:32:36Z</time>
      </trkpt>
      <trkpt lat="45.23444" lon="5.24375">
        <ele>554</ele>
        <time>2009-02-09T14:32:51Z</time>
      </trkpt>
      <trkpt lat="45.23366" lon="5.24283">
        <ele>564</ele>
        <time>2009-02-09T14:33:07Z</time>
      </trkpt>
      <trkpt lat="45.23282" lon="5.24205">
        <ele>565</ele>
        <time>2009-02-09T14:33:22Z</time>
      </trkpt>
      <trkpt lat="45.23108" lon="5.24025">
        <ele>567</ele>
        <time>2009-02-09T14:33:55Z</time>
      </trkpt>
      <trkpt lat="45.23041" lon="5.23979">
        <ele>565</ele>
        <time>2009-02-09T14:34:07Z</time>
      </trkpt>
      <trkpt lat="45.22979" lon="5.23956">
        <ele>574</ele>
        <time>2009-02-09T14:34:16Z</time>
      </trkpt>
      <trkpt lat="45.22969" lon="5.23933">
        <ele>574</ele>
        <time>2009-02-09T14:34:19Z</time>
      </trkpt>
      <trkpt lat="45.22913" lon="5.23883">
        <ele>566</ele>
        <time>2009-02-09T14:34:29Z</time>
      </trkpt>
      <trkpt lat="45.22804" lon="5.23823">
        <ele>571</ele>
        <time>2009-02-09T14:34:47Z</time>
      </trkpt>
      <trkpt lat="45.2272" lon="5.23726">
        <ele>579</ele>
        <time>2009-02-09T14:35:04Z</time>
      </trkpt>
      <trkpt lat="45.2263" lon="5.23661">
        <ele>585</ele>
        <time>2009-02-09T14:35:19Z</time>
      </trkpt>
      <trkpt lat="45.22601" lon="5.23646">
        <ele>586</ele>
        <time>2009-02-09T14:35:24Z</time>
      </trkpt>
      <trkpt lat="45.22576" lon="5.23642">
        <ele>586</ele>
        <time>2009-02-09T14:35:28Z</time>
      </trkpt>
      <trkpt lat="45.22562" lon="5.23651">
        <ele>586</ele>
        <time>2009-02-09T14:35:30Z</time>
      </trkpt>
      <trkpt lat="45.2256" lon="5.23669">
        <ele>586</ele>
        <time>2009-02-09T14:35:32Z</time>
      </trkpt>
      <trkpt lat="45.22574" lon="5.23721">
        <ele>587</ele>
        <time>2009-02-09T14:35:38Z</time>
      </trkpt>
      <trkpt lat="45.22582" lon="5.23771">
        <ele>587</ele>
        <time>2009-02-09T14:35:44Z</time>
      </trkpt>
      <trkpt lat="45.22576" lon="5.23785">
        <ele>587</ele>
        <time>2009-02-09T14:35:46Z</time>
      </trkpt>
      <trkpt lat="45.22566" lon="5.23791">
        <ele>587</ele>
        <time>2009-02-09T14:35:47Z</time>
      </trkpt>
      <trkpt lat="45.22406" lon="5.23818">
        <ele>588</ele>
        <time>2009-02-09T14:36:12Z</time>
      </trkpt>
      <trkpt lat="45.22378" lon="5.23816">
        <ele>588</ele>
        <time>2009-02-09T14:36:16Z</time>
      </trkpt>
      <trkpt lat="45.22345" lon="5.23798">
        <ele>587</ele>
        <time>2009-02-09T14:36:22Z</time>
      </trkpt>
      <trkpt lat="45.22328" lon="5.23782">
        <ele>594</ele>
        <time>2009-02-09T14:36:25Z</time>
      </trkpt>
      <trkpt lat="45.22305" lon="5.23747">
        <ele>594</ele>
        <time>2009-02-09T14:36:30Z</time>
      </trkpt>
      <trkpt lat="45.22296" lon="5.2372">
        <ele>594</ele>
        <time>2009-02-09T14:36:33Z</time>
      </trkpt>
      <trkpt lat="45.22287" lon="5.23626">
        <ele>600</ele>
        <time>2009-02-09T14:36:44Z</time>
      </trkpt>
      <trkpt lat="45.22279" lon="5.23601">
        <ele>607</ele>
        <time>2009-02-09T14:36:47Z</time>
      </trkpt>
      <trkpt lat="45.2227" lon="5.23591">
        <ele>607</ele>
        <time>2009-02-09T14:36:48Z</time>
      </trkpt>
      <trkpt lat="45.22096" lon="5.23502">
        <ele>609</ele>
        <time>2009-02-09T14:37:17Z</time>
      </trkpt>
      <trkpt lat="45.22017" lon="5.23424">
        <ele>613</ele>
        <time>2009-02-09T14:37:32Z</time>
      </trkpt>
      <trkpt lat="45.21923" lon="5.23364">
        <ele>619</ele>
        <time>2009-02-09T14:37:47Z</time>
      </trkpt>
      <trkpt lat="45.21688" lon="5.22802">
        <ele>626</ele>
        <time>2009-02-09T14:38:58Z</time>
      </trkpt>
      <trkpt lat="45.21561" lon="5.22513">
        <ele>628</ele>
        <time>2009-02-09T14:39:35Z</time>
      </trkpt>
      <trkpt lat="45.21547" lon="5.22489">
        <ele>628</ele>
        <time>2009-02-09T14:39:38Z</time>
      </trkpt>
      <trkpt lat="45.21512" lon="5.22432">
        <ele>629</ele>
        <time>2009-02-09T14:39:46Z</time>
      </trkpt>
      <trkpt lat="45.21385" lon="5.22255">
        <ele>633</ele>
        <time>2009-02-09T14:40:14Z</time>
      </trkpt>
      <trkpt lat="45.21334" lon="5.22201">
        <ele>630</ele>
        <time>2009-02-09T14:40:23Z</time>
      </trkpt>
      <trkpt lat="45.213" lon="5.22184">
        <ele>630</ele>
        <time>2009-02-09T14:40:29Z</time>
      </trkpt>
      <trkpt lat="45.21042" lon="5.22108">
        <ele>621</ele>
        <time>2009-02-09T14:41:09Z</time>
      </trkpt>
      <trkpt lat="45.21009" lon="5.22085">
        <ele>615</ele>
        <time>2009-02-09T14:41:15Z</time>
      </trkpt>
      <trkpt lat="45.20968" lon="5.21974">
        <ele>615</ele>
        <time>2009-02-09T14:41:29Z</time>
      </trkpt>
      <trkpt lat="45.20917" lon="5.21807">
        <ele>603</ele>
        <time>2009-02-09T14:41:48Z</time>
      </trkpt>
      <trkpt lat="45.20893" lon="5.21714">
        <ele>602</ele>
        <time>2009-02-09T14:41:59Z</time>
      </trkpt>
      <trkpt lat="45.20886" lon="5.21672">
        <ele>598</ele>
        <time>2009-02-09T14:42:04Z</time>
      </trkpt>
      <trkpt lat="45.20839" lon="5.21504">
        <ele>595</ele>
        <time>2009-02-09T14:42:23Z</time>
      </trkpt>
      <trkpt lat="45.2079" lon="5.21383">
        <ele>580</ele>
        <time>2009-02-09T14:42:38Z</time>
      </trkpt>
      <trkpt lat="45.20734" lon="5.21337">
        <ele>589</ele>
        <time>2009-02-09T14:42:48Z</time>
      </trkpt>
      <trkpt lat="45.20725" lon="5.21323">
        <ele>589</ele>
        <time>2009-02-09T14:42:50Z</time>
      </trkpt>
      <trkpt lat="45.20713" lon="5.2129">
        <ele>592</ele>
        <time>2009-02-09T14:42:54Z</time>
      </trkpt>
      <trkpt lat="45.20705" lon="5.21262">
        <ele>576</ele>
        <time>2009-02-09T14:42:58Z</time>
      </trkpt>
      <trkpt lat="45.207" lon="5.21219">
        <ele>576</ele>
        <time>2009-02-09T14:43:02Z</time>
      </trkpt>
      <trkpt lat="45.20701" lon="5.21198">
        <ele>569</ele>
        <time>2009-02-09T14:43:05Z</time>
      </trkpt>
      <trkpt lat="45.2071" lon="5.21157">
        <ele>590</ele>
        <time>2009-02-09T14:43:09Z</time>
      </trkpt>
      <trkpt lat="45.20707" lon="5.2113">
        <ele>569</ele>
        <time>2009-02-09T14:43:12Z</time>
      </trkpt>
      <trkpt lat="45.20703" lon="5.2112">
        <ele>574</ele>
        <time>2009-02-09T14:43:13Z</time>
      </trkpt>
      <trkpt lat="45.2067" lon="5.21082">
        <ele>574</ele>
        <time>2009-02-09T14:43:20Z</time>
      </trkpt>
      <trkpt lat="45.20661" lon="5.21029">
        <ele>581</ele>
        <time>2009-02-09T14:43:26Z</time>
      </trkpt>
      <trkpt lat="45.206" lon="5.20982">
        <ele>567</ele>
        <time>2009-02-09T14:43:37Z</time>
      </trkpt>
      <trkpt lat="45.20573" lon="5.20951">
        <ele>572</ele>
        <time>2009-02-09T14:43:42Z</time>
      </trkpt>
      <trkpt lat="45.20568" lon="5.20926">
        <ele>572</ele>
        <time>2009-02-09T14:43:45Z</time>
      </trkpt>
      <trkpt lat="45.20568" lon="5.20833">
        <ele>573</ele>
        <time>2009-02-09T14:43:55Z</time>
      </trkpt>
      <trkpt lat="45.2056" lon="5.20814">
        <ele>573</ele>
        <time>2009-02-09T14:43:57Z</time>
      </trkpt>
      <trkpt lat="45.20496" lon="5.20769">
        <ele>569</ele>
        <time>2009-02-09T14:44:08Z</time>
      </trkpt>
      <trkpt lat="45.20458" lon="5.20761">
        <ele>565</ele>
        <time>2009-02-09T14:44:14Z</time>
      </trkpt>
      <trkpt lat="45.20296" lon="5.20815">
        <ele>550</ele>
        <time>2009-02-09T14:44:40Z</time>
      </trkpt>
      <trkpt lat="45.20253" lon="5.2082">
        <ele>543</ele>
        <time>2009-02-09T14:44:46Z</time>
      </trkpt>
      <trkpt lat="45.20198" lon="5.20813">
        <ele>524</ele>
        <time>2009-02-09T14:44:55Z</time>
      </trkpt>
      <trkpt lat="45.20179" lon="5.20799">
        <ele>524</ele>
        <time>2009-02-09T14:44:58Z</time>
      </trkpt>
      <trkpt lat="45.20169" lon="5.20784">
        <ele>538</ele>
        <time>2009-02-09T14:45:00Z</time>
      </trkpt>
      <trkpt lat="45.20123" lon="5.20676">
        <ele>530</ele>
        <time>2009-02-09T14:45:14Z</time>
      </trkpt>
      <trkpt lat="45.2011" lon="5.20658">
        <ele>530</ele>
        <time>2009-02-09T14:45:17Z</time>
      </trkpt>
      <trkpt lat="45.20091" lon="5.20642">
        <ele>530</ele>
        <time>2009-02-09T14:45:20Z</time>
      </trkpt>
      <trkpt lat="45.20018" lon="5.20597">
        <ele>530</ele>
        <time>2009-02-09T14:45:32Z</time>
      </trkpt>
      <trkpt lat="45.19931" lon="5.20554">
        <ele>510</ele>
        <time>2009-02-09T14:45:46Z</time>
      </trkpt>
      <trkpt lat="45.19809" lon="5.20507">
        <ele>520</ele>
        <time>2009-02-09T14:46:06Z</time>
      </trkpt>
      <trkpt lat="45.19796" lon="5.20496">
        <ele>520</ele>
        <time>2009-02-09T14:46:08Z</time>
      </trkpt>
      <trkpt lat="45.19786" lon="5.20481">
        <ele>508</ele>
        <time>2009-02-09T14:46:10Z</time>
      </trkpt>
      <trkpt lat="45.19776" lon="5.20452">
        <ele>507</ele>
        <time>2009-02-09T14:46:14Z</time>
      </trkpt>
      <trkpt lat="45.19765" lon="5.20345">
        <ele>507</ele>
        <time>2009-02-09T14:46:25Z</time>
      </trkpt>
      <trkpt lat="45.19764" lon="5.20285">
        <ele>504</ele>
        <time>2009-02-09T14:46:32Z</time>
      </trkpt>
      <trkpt lat="45.19776" lon="5.20225">
        <ele>504</ele>
        <time>2009-02-09T14:46:39Z</time>
      </trkpt>
      <trkpt lat="45.19774" lon="5.20212">
        <ele>504</ele>
        <time>2009-02-09T14:46:40Z</time>
      </trkpt>
      <trkpt lat="45.19761" lon="5.20197">
        <ele>504</ele>
        <time>2009-02-09T14:46:43Z</time>
      </trkpt>
      <trkpt lat="45.19705" lon="5.20105">
        <ele>493</ele>
        <time>2009-02-09T14:46:56Z</time>
      </trkpt>
      <trkpt lat="45.19673" lon="5.20034">
        <ele>495</ele>
        <time>2009-02-09T14:47:05Z</time>
      </trkpt>
      <trkpt lat="45.19649" lon="5.20003">
        <ele>495</ele>
        <time>2009-02-09T14:47:10Z</time>
      </trkpt>
      <trkpt lat="45.19634" lon="5.19992">
        <ele>495</ele>
        <time>2009-02-09T14:47:13Z</time>
      </trkpt>
      <trkpt lat="45.19634" lon="5.20014">
        <ele>495</ele>
        <time>2009-02-09T14:47:15Z</time>
      </trkpt>
      <trkpt lat="45.19634" lon="5.19848">
        <ele>497</ele>
        <time>2009-02-09T14:47:33Z</time>
      </trkpt>
      <trkpt lat="45.19618" lon="5.19776">
        <ele>490</ele>
        <time>2009-02-09T14:47:41Z</time>
      </trkpt>
      <trkpt lat="45.19611" lon="5.19719">
        <ele>490</ele>
        <time>2009-02-09T14:47:47Z</time>
      </trkpt>
      <trkpt lat="45.19608" lon="5.19559">
        <ele>486</ele>
        <time>2009-02-09T14:48:05Z</time>
      </trkpt>
      <trkpt lat="45.19612" lon="5.19385">
        <ele>482</ele>
        <time>2009-02-09T14:48:23Z</time>
      </trkpt>
      <trkpt lat="45.19622" lon="5.19198">
        <ele>476</ele>
        <time>2009-02-09T14:48:44Z</time>
      </trkpt>
      <trkpt lat="45.19646" lon="5.18981">
        <ele>480</ele>
        <time>2009-02-09T14:49:07Z</time>
      </trkpt>
      <trkpt lat="45.19648" lon="5.1895">
        <ele>478</ele>
        <time>2009-02-09T14:49:11Z</time>
      </trkpt>
      <trkpt lat="45.19645" lon="5.18886">
        <ele>478</ele>
        <time>2009-02-09T14:49:18Z</time>
      </trkpt>
      <trkpt lat="45.19665" lon="5.18785">
        <ele>475</ele>
        <time>2009-02-09T14:49:29Z</time>
      </trkpt>
      <trkpt lat="45.19654" lon="5.18692">
        <ele>470</ele>
        <time>2009-02-09T14:49:39Z</time>
      </trkpt>
      <trkpt lat="45.19661" lon="5.18463">
        <ele>463</ele>
        <time>2009-02-09T14:50:04Z</time>
      </trkpt>
      <trkpt lat="45.19668" lon="5.18413">
        <ele>462</ele>
        <time>2009-02-09T14:50:10Z</time>
      </trkpt>
      <trkpt lat="45.19702" lon="5.18325">
        <ele>462</ele>
        <time>2009-02-09T14:50:21Z</time>
      </trkpt>
      <trkpt lat="45.19709" lon="5.18294">
        <ele>466</ele>
        <time>2009-02-09T14:50:24Z</time>
      </trkpt>
      <trkpt lat="45.19717" lon="5.18249">
        <ele>467</ele>
        <time>2009-02-09T14:50:29Z</time>
      </trkpt>
      <trkpt lat="45.1973" lon="5.18121">
        <ele>460</ele>
        <time>2009-02-09T14:50:43Z</time>
      </trkpt>
      <trkpt lat="45.19735" lon="5.17974">
        <ele>460</ele>
        <time>2009-02-09T14:50:59Z</time>
      </trkpt>
      <trkpt lat="45.19733" lon="5.17938">
        <ele>455</ele>
        <time>2009-02-09T14:51:03Z</time>
      </trkpt>
      <trkpt lat="45.19727" lon="5.17911">
        <ele>455</ele>
        <time>2009-02-09T14:51:06Z</time>
      </trkpt>
      <trkpt lat="45.1971" lon="5.17884">
        <ele>455</ele>
        <time>2009-02-09T14:51:10Z</time>
      </trkpt>
      <trkpt lat="45.19704" lon="5.17865">
        <ele>461</ele>
        <time>2009-02-09T14:51:12Z</time>
      </trkpt>
      <trkpt lat="45.19772" lon="5.1762">
        <ele>456</ele>
        <time>2009-02-09T14:51:41Z</time>
      </trkpt>
      <trkpt lat="45.19776" lon="5.17595">
        <ele>456</ele>
        <time>2009-02-09T14:51:43Z</time>
      </trkpt>
      <trkpt lat="45.19774" lon="5.17515">
        <ele>458</ele>
        <time>2009-02-09T14:51:52Z</time>
      </trkpt>
      <trkpt lat="45.19777" lon="5.1749">
        <ele>458</ele>
        <time>2009-02-09T14:51:55Z</time>
      </trkpt>
      <trkpt lat="45.19801" lon="5.17414">
        <ele>448</ele>
        <time>2009-02-09T14:52:04Z</time>
      </trkpt>
      <trkpt lat="45.19859" lon="5.17264">
        <ele>459</ele>
        <time>2009-02-09T14:52:22Z</time>
      </trkpt>
      <trkpt lat="45.19872" lon="5.17209">
        <ele>459</ele>
        <time>2009-02-09T14:52:29Z</time>
      </trkpt>
      <trkpt lat="45.19872" lon="5.17075">
        <ele>465</ele>
        <time>2009-02-09T14:52:43Z</time>
      </trkpt>
      <trkpt lat="45.19881" lon="5.16958">
        <ele>433</ele>
        <time>2009-02-09T14:52:56Z</time>
      </trkpt>
      <trkpt lat="45.19881" lon="5.16831">
        <ele>433</ele>
        <time>2009-02-09T14:53:09Z</time>
      </trkpt>
      <trkpt lat="45.19875" lon="5.1681">
        <ele>444</ele>
        <time>2009-02-09T14:53:12Z</time>
      </trkpt>
      <trkpt lat="45.19838" lon="5.16746">
        <ele>434</ele>
        <time>2009-02-09T14:53:21Z</time>
      </trkpt>
      <trkpt lat="45.19807" lon="5.16665">
        <ele>430</ele>
        <time>2009-02-09T14:53:31Z</time>
      </trkpt>
      <trkpt lat="45.19786" lon="5.16587">
        <ele>435</ele>
        <time>2009-02-09T14:53:40Z</time>
      </trkpt>
      <trkpt lat="45.19783" lon="5.16536">
        <ele>430</ele>
        <time>2009-02-09T14:53:45Z</time>
      </trkpt>
      <trkpt lat="45.19814" lon="5.1627">
        <ele>417</ele>
        <time>2009-02-09T14:54:15Z</time>
      </trkpt>
      <trkpt lat="45.19834" lon="5.16196">
        <ele>420</ele>
        <time>2009-02-09T14:54:23Z</time>
      </trkpt>
      <trkpt lat="45.19879" lon="5.16067">
        <ele>415</ele>
        <time>2009-02-09T14:54:39Z</time>
      </trkpt>
      <trkpt lat="45.19897" lon="5.15984">
        <ele>419</ele>
        <time>2009-02-09T14:54:48Z</time>
      </trkpt>
      <trkpt lat="45.19903" lon="5.15787">
        <ele>422</ele>
        <time>2009-02-09T14:55:09Z</time>
      </trkpt>
      <trkpt lat="45.1989" lon="5.15631">
        <ele>421</ele>
        <time>2009-02-09T14:55:26Z</time>
      </trkpt>
      <trkpt lat="45.1987" lon="5.15528">
        <ele>427</ele>
        <time>2009-02-09T14:55:38Z</time>
      </trkpt>
      <trkpt lat="45.19757" lon="5.15171">
        <ele>422</ele>
        <time>2009-02-09T14:56:20Z</time>
      </trkpt>
      <trkpt lat="45.1974" lon="5.15065">
        <ele>419</ele>
        <time>2009-02-09T14:56:32Z</time>
      </trkpt>
      <trkpt lat="45.19733" lon="5.14993">
        <ele>414</ele>
        <time>2009-02-09T14:56:40Z</time>
      </trkpt>
      <trkpt lat="45.19725" lon="5.14819">
        <ele>411</ele>
        <time>2009-02-09T14:56:59Z</time>
      </trkpt>
      <trkpt lat="45.19716" lon="5.14769">
        <ele>407</ele>
        <time>2009-02-09T14:57:04Z</time>
      </trkpt>
      <trkpt lat="45.19709" lon="5.14752">
        <ele>407</ele>
        <time>2009-02-09T14:57:07Z</time>
      </trkpt>
      <trkpt lat="45.19686" lon="5.14725">
        <ele>413</ele>
        <time>2009-02-09T14:57:11Z</time>
      </trkpt>
      <trkpt lat="45.19609" lon="5.14659">
        <ele>413</ele>
        <time>2009-02-09T14:57:25Z</time>
      </trkpt>
      <trkpt lat="45.19598" lon="5.14631">
        <ele>413</ele>
        <time>2009-02-09T14:57:28Z</time>
      </trkpt>
      <trkpt lat="45.19596" lon="5.14536">
        <ele>414</ele>
        <time>2009-02-09T14:57:39Z</time>
      </trkpt>
      <trkpt lat="45.19587" lon="5.14454">
        <ele>410</ele>
        <time>2009-02-09T14:57:48Z</time>
      </trkpt>
      <trkpt lat="45.19575" lon="5.14431">
        <ele>410</ele>
        <time>2009-02-09T14:57:51Z</time>
      </trkpt>
      <trkpt lat="45.19529" lon="5.14378">
        <ele>414</ele>
        <time>2009-02-09T14:58:00Z</time>
      </trkpt>
      <trkpt lat="45.19512" lon="5.14346">
        <ele>407</ele>
        <time>2009-02-09T14:58:04Z</time>
      </trkpt>
      <trkpt lat="45.19511" lon="5.14314">
        <ele>407</ele>
        <time>2009-02-09T14:58:08Z</time>
      </trkpt>
      <trkpt lat="45.19541" lon="5.14232">
        <ele>409</ele>
        <time>2009-02-09T14:58:18Z</time>
      </trkpt>
      <trkpt lat="45.19544" lon="5.14194">
        <ele>399</ele>
        <time>2009-02-09T14:58:22Z</time>
      </trkpt>
      <trkpt lat="45.19532" lon="5.14164">
        <ele>409</ele>
        <time>2009-02-09T14:58:25Z</time>
      </trkpt>
      <trkpt lat="45.19514" lon="5.14087">
        <ele>403</ele>
        <time>2009-02-09T14:58:34Z</time>
      </trkpt>
      <trkpt lat="45.19479" lon="5.13838">
        <ele>391</ele>
        <time>2009-02-09T14:59:02Z</time>
      </trkpt>
      <trkpt lat="45.19469" lon="5.13336">
        <ele>376</ele>
        <time>2009-02-09T14:59:56Z</time>
      </trkpt>
      <trkpt lat="45.19505" lon="5.13115">
        <ele>379</ele>
        <time>2009-02-09T15:00:21Z</time>
      </trkpt>
      <trkpt lat="45.19519" lon="5.12992">
        <ele>378</ele>
        <time>2009-02-09T15:00:34Z</time>
      </trkpt>
      <trkpt lat="45.19522" lon="5.1293">
        <ele>378</ele>
        <time>2009-02-09T15:00:41Z</time>
      </trkpt>
      <trkpt lat="45.19518" lon="5.12757">
        <ele>373</ele>
        <time>2009-02-09T15:00:59Z</time>
      </trkpt>
      <trkpt lat="45.19529" lon="5.12668">
        <ele>369</ele>
        <time>2009-02-09T15:01:09Z</time>
      </trkpt>
      <trkpt lat="45.19537" lon="5.12647">
        <ele>369</ele>
        <time>2009-02-09T15:01:12Z</time>
      </trkpt>
      <trkpt lat="45.1956" lon="5.12625">
        <ele>360</ele>
        <time>2009-02-09T15:01:16Z</time>
      </trkpt>
      <trkpt lat="45.19654" lon="5.12572">
        <ele>359</ele>
        <time>2009-02-09T15:01:32Z</time>
      </trkpt>
      <trkpt lat="45.19669" lon="5.12555">
        <ele>359</ele>
        <time>2009-02-09T15:01:35Z</time>
      </trkpt>
      <trkpt lat="45.19682" lon="5.12531">
        <ele>358</ele>
        <time>2009-02-09T15:01:38Z</time>
      </trkpt>
      <trkpt lat="45.19568" lon="5.1206">
        <ele>352</ele>
        <time>2009-02-09T15:02:32Z</time>
      </trkpt>
      <trkpt lat="45.19568" lon="5.12033">
        <ele>352</ele>
        <time>2009-02-09T15:02:35Z</time>
      </trkpt>
      <trkpt lat="45.19592" lon="5.11975">
        <ele>352</ele>
        <time>2009-02-09T15:02:42Z</time>
      </trkpt>
      <trkpt lat="45.19593" lon="5.11965">
        <ele>352</ele>
        <time>2009-02-09T15:02:43Z</time>
      </trkpt>
      <trkpt lat="45.19592" lon="5.11917">
        <ele>352</ele>
        <time>2009-02-09T15:02:48Z</time>
      </trkpt>
      <trkpt lat="45.19578" lon="5.11755">
        <ele>358</ele>
        <time>2009-02-09T15:03:06Z</time>
      </trkpt>
      <trkpt lat="45.19581" lon="5.11734">
        <ele>358</ele>
        <time>2009-02-09T15:03:08Z</time>
      </trkpt>
      <trkpt lat="45.19585" lon="5.11727">
        <ele>358</ele>
        <time>2009-02-09T15:03:09Z</time>
      </trkpt>
      <trkpt lat="45.19581" lon="5.11734">
        <ele>358</ele>
        <time>2009-02-09T15:03:10Z</time>
      </trkpt>
      <trkpt lat="45.19522" lon="5.11688">
        <ele>358</ele>
        <time>2009-02-09T15:03:20Z</time>
      </trkpt>
      <trkpt lat="45.19511" lon="5.1167">
        <ele>358</ele>
        <time>2009-02-09T15:03:23Z</time>
      </trkpt>
      <trkpt lat="45.19494" lon="5.11624">
        <ele>359</ele>
        <time>2009-02-09T15:03:29Z</time>
      </trkpt>
      <trkpt lat="45.19442" lon="5.11432">
        <ele>352</ele>
        <time>2009-02-09T15:03:51Z</time>
      </trkpt>
      <trkpt lat="45.19408" lon="5.11328">
        <ele>354</ele>
        <time>2009-02-09T15:04:03Z</time>
      </trkpt>
      <trkpt lat="45.1933" lon="5.11053">
        <ele>348</ele>
        <time>2009-02-09T15:04:35Z</time>
      </trkpt>
      <trkpt lat="45.18976" lon="5.09784">
        <ele>332</ele>
        <time>2009-02-09T15:07:03Z</time>
      </trkpt>
      <trkpt lat="45.18651" lon="5.08798">
        <ele>321</ele>
        <time>2009-02-09T15:09:01Z</time>
      </trkpt>
      <trkpt lat="45.18625" lon="5.08722">
        <ele>315</ele>
        <time>2009-02-09T15:09:10Z</time>
      </trkpt>
      <trkpt lat="45.18608" lon="5.08684">
        <ele>316</ele>
        <time>2009-02-09T15:09:15Z</time>
      </trkpt>
      <trkpt lat="45.18021" lon="5.07858">
        <ele>305</ele>
        <time>2009-02-09T15:11:22Z</time>
      </trkpt>
      <trkpt lat="45.17798" lon="5.07521">
        <ele>298</ele>
        <time>2009-02-09T15:12:12Z</time>
      </trkpt>
      <trkpt lat="45.17493" lon="5.071">
        <ele>303</ele>
        <time>2009-02-09T15:13:17Z</time>
      </trkpt>
      <trkpt lat="45.17449" lon="5.07051">
        <ele>295</ele>
        <time>2009-02-09T15:13:26Z</time>
      </trkpt>
      <trkpt lat="45.17419" lon="5.07027">
        <ele>303</ele>
        <time>2009-02-09T15:13:31Z</time>
      </trkpt>
      <trkpt lat="45.17323" lon="5.07">
        <ele>300</ele>
        <time>2009-02-09T15:13:46Z</time>
      </trkpt>
      <trkpt lat="45.17293" lon="5.06983">
        <ele>300</ele>
        <time>2009-02-09T15:13:51Z</time>
      </trkpt>
      <trkpt lat="45.17246" lon="5.06947">
        <ele>327</ele>
        <time>2009-02-09T15:13:59Z</time>
      </trkpt>
      <trkpt lat="45.17212" lon="5.06944">
        <ele>327</ele>
        <time>2009-02-09T15:14:04Z</time>
      </trkpt>
      <trkpt lat="45.17189" lon="5.06933">
        <ele>304</ele>
        <time>2009-02-09T15:14:08Z</time>
      </trkpt>
      <trkpt lat="45.17009" lon="5.06769">
        <ele>293</ele>
        <time>2009-02-09T15:14:41Z</time>
      </trkpt>
      <trkpt lat="45.1678" lon="5.06525">
        <ele>287</ele>
        <time>2009-02-09T15:15:25Z</time>
      </trkpt>
      <trkpt lat="45.16762" lon="5.06496">
        <ele>287</ele>
        <time>2009-02-09T15:15:29Z</time>
      </trkpt>
      <trkpt lat="45.16729" lon="5.06375">
        <ele>290</ele>
        <time>2009-02-09T15:15:43Z</time>
      </trkpt>
      <trkpt lat="45.16659" lon="5.06036">
        <ele>297</ele>
        <time>2009-02-09T15:16:21Z</time>
      </trkpt>
      <trkpt lat="45.16648" lon="5.0599">
        <ele>297</ele>
        <time>2009-02-09T15:16:26Z</time>
      </trkpt>
      <trkpt lat="45.16627" lon="5.0593">
        <ele>304</ele>
        <time>2009-02-09T15:16:34Z</time>
      </trkpt>
      <trkpt lat="45.16528" lon="5.05675">
        <ele>287</ele>
        <time>2009-02-09T15:17:05Z</time>
      </trkpt>
      <trkpt lat="45.16252" lon="5.05163">
        <ele>276</ele>
        <time>2009-02-09T15:18:15Z</time>
      </trkpt>
      <trkpt lat="45.16221" lon="5.05082">
        <ele>273</ele>
        <time>2009-02-09T15:18:25Z</time>
      </trkpt>
      <trkpt lat="45.16168" lon="5.04882">
        <ele>272</ele>
        <time>2009-02-09T15:18:48Z</time>
      </trkpt>
      <trkpt lat="45.16161" lon="5.04852">
        <ele>272</ele>
        <time>2009-02-09T15:18:52Z</time>
      </trkpt>
      <trkpt lat="45.16159" lon="5.04824">
        <ele>272</ele>
        <time>2009-02-09T15:18:55Z</time>
      </trkpt>
      <trkpt lat="45.16165" lon="5.04585">
        <ele>268</ele>
        <time>2009-02-09T15:19:20Z</time>
      </trkpt>
      <trkpt lat="45.16169" lon="5.04542">
        <ele>268</ele>
        <time>2009-02-09T15:19:25Z</time>
      </trkpt>
      <trkpt lat="45.16177" lon="5.04498">
        <ele>266</ele>
        <time>2009-02-09T15:19:30Z</time>
      </trkpt>
      <trkpt lat="45.16223" lon="5.04323">
        <ele>265</ele>
        <time>2009-02-09T15:19:50Z</time>
      </trkpt>
      <trkpt lat="45.16229" lon="5.04281">
        <ele>265</ele>
        <time>2009-02-09T15:19:55Z</time>
      </trkpt>
      <trkpt lat="45.16186" lon="5.03987">
        <ele>264</ele>
        <time>2009-02-09T15:20:27Z</time>
      </trkpt>
      <trkpt lat="45.16183" lon="5.03975">
        <ele>264</ele>
        <time>2009-02-09T15:20:29Z</time>
      </trkpt>
      <trkpt lat="45.16167" lon="5.03949">
        <ele>265</ele>
        <time>2009-02-09T15:20:33Z</time>
      </trkpt>
      <trkpt lat="45.16183" lon="5.03915">
        <ele>265</ele>
        <time>2009-02-09T15:20:37Z</time>
      </trkpt>
      <trkpt lat="45.16193" lon="5.03883">
        <ele>265</ele>
        <time>2009-02-09T15:20:41Z</time>
      </trkpt>
      <trkpt lat="45.16187" lon="5.03873">
        <ele>263</ele>
        <time>2009-02-09T15:20:42Z</time>
      </trkpt>
      <trkpt lat="45.16192" lon="5.03663">
        <ele>262</ele>
        <time>2009-02-09T15:21:05Z</time>
      </trkpt>
      <trkpt lat="45.16192" lon="5.03543">
        <ele>262</ele>
        <time>2009-02-09T15:21:18Z</time>
      </trkpt>
      <trkpt lat="45.16188" lon="5.03507">
        <ele>263</ele>
        <time>2009-02-09T15:21:22Z</time>
      </trkpt>
      <trkpt lat="45.16178" lon="5.03449">
        <ele>267</ele>
        <time>2009-02-09T15:21:28Z</time>
      </trkpt>
      <trkpt lat="45.16161" lon="5.03394">
        <ele>267</ele>
        <time>2009-02-09T15:21:35Z</time>
      </trkpt>
      <trkpt lat="45.16124" lon="5.03315">
        <ele>264</ele>
        <time>2009-02-09T15:21:45Z</time>
      </trkpt>
      <trkpt lat="45.16004" lon="5.03124">
        <ele>268</ele>
        <time>2009-02-09T15:22:13Z</time>
      </trkpt>
      <trkpt lat="45.15863" lon="5.02917">
        <ele>256</ele>
        <time>2009-02-09T15:22:44Z</time>
      </trkpt>
      <trkpt lat="45.15636" lon="5.02696">
        <ele>257</ele>
        <time>2009-02-09T15:23:26Z</time>
      </trkpt>
      <trkpt lat="45.15406" lon="5.02402">
        <ele>252</ele>
        <time>2009-02-09T15:24:14Z</time>
      </trkpt>
      <trkpt lat="45.15341" lon="5.02329">
        <ele>250</ele>
        <time>2009-02-09T15:24:26Z</time>
      </trkpt>
      <trkpt lat="45.15259" lon="5.02183">
        <ele>252</ele>
        <time>2009-02-09T15:24:47Z</time>
      </trkpt>
      <trkpt lat="45.15189" lon="5.02071">
        <ele>249</ele>
        <time>2009-02-09T15:25:03Z</time>
      </trkpt>
      <trkpt lat="45.15193" lon="5.02066">
        <ele>249</ele>
        <time>2009-02-09T15:25:04Z</time>
      </trkpt>
      <trkpt lat="45.15193" lon="5.02057">
        <ele>249</ele>
        <time>2009-02-09T15:25:05Z</time>
      </trkpt>
      <trkpt lat="45.15174" lon="5.02049">
        <ele>249</ele>
        <time>2009-02-09T15:25:08Z</time>
      </trkpt>
      <trkpt lat="45.14867" lon="5.01622">
        <ele>254</ele>
        <time>2009-02-09T15:26:14Z</time>
      </trkpt>
      <trkpt lat="45.14759" lon="5.01507">
        <ele>251</ele>
        <time>2009-02-09T15:26:34Z</time>
      </trkpt>
      <trkpt lat="45.14736" lon="5.01474">
        <ele>251</ele>
        <time>2009-02-09T15:26:39Z</time>
      </trkpt>
      <trkpt lat="45.14669" lon="5.01279">
        <ele>244</ele>
        <time>2009-02-09T15:27:03Z</time>
      </trkpt>
      <trkpt lat="45.14652" lon="5.01248">
        <ele>244</ele>
        <time>2009-02-09T15:27:07Z</time>
      </trkpt>
      <trkpt lat="45.14625" lon="5.01212">
        <ele>244</ele>
        <time>2009-02-09T15:27:13Z</time>
      </trkpt>
      <trkpt lat="45.14601" lon="5.01188">
        <ele>252</ele>
        <time>2009-02-09T15:27:17Z</time>
      </trkpt>
      <trkpt lat="45.14484" lon="5.01105">
        <ele>254</ele>
        <time>2009-02-09T15:27:37Z</time>
      </trkpt>
      <trkpt lat="45.14315" lon="5.00921">
        <ele>255</ele>
        <time>2009-02-09T15:28:10Z</time>
      </trkpt>
      <trkpt lat="45.14269" lon="5.0089">
        <ele>244</ele>
        <time>2009-02-09T15:28:18Z</time>
      </trkpt>
      <trkpt lat="45.14207" lon="5.00861">
        <ele>255</ele>
        <time>2009-02-09T15:28:28Z</time>
      </trkpt>
      <trkpt lat="45.14152" lon="5.00827">
        <ele>255</ele>
        <time>2009-02-09T15:28:37Z</time>
      </trkpt>
      <trkpt lat="45.13869" lon="5.00681">
        <ele>257</ele>
        <time>2009-02-09T15:29:23Z</time>
      </trkpt>
      <trkpt lat="45.13858" lon="5.00662">
        <ele>257</ele>
        <time>2009-02-09T15:29:26Z</time>
      </trkpt>
      <trkpt lat="45.13787" lon="5.00595">
        <ele>262</ele>
        <time>2009-02-09T15:29:39Z</time>
      </trkpt>
      <trkpt lat="45.13684" lon="5.00487">
        <ele>238</ele>
        <time>2009-02-09T15:29:59Z</time>
      </trkpt>
      <trkpt lat="45.1362" lon="5.00453">
        <ele>253</ele>
        <time>2009-02-09T15:30:09Z</time>
      </trkpt>
      <trkpt lat="45.1351" lon="5.00416">
        <ele>248</ele>
        <time>2009-02-09T15:30:27Z</time>
      </trkpt>
      <trkpt lat="45.13491" lon="5.0042">
        <ele>248</ele>
        <time>2009-02-09T15:30:30Z</time>
      </trkpt>
      <trkpt lat="45.13484" lon="5.00417">
        <ele>248</ele>
        <time>2009-02-09T15:30:31Z</time>
      </trkpt>
      <trkpt lat="45.13361" lon="5.00334">
        <ele>247</ele>
        <time>2009-02-09T15:30:52Z</time>
      </trkpt>
      <trkpt lat="45.13334" lon="5.00329">
        <ele>247</ele>
        <time>2009-02-09T15:30:56Z</time>
      </trkpt>
      <trkpt lat="45.13195" lon="5.00332">
        <ele>239</ele>
        <time>2009-02-09T15:31:17Z</time>
      </trkpt>
      <trkpt lat="45.12995" lon="5.00257">
        <ele>246</ele>
        <time>2009-02-09T15:31:49Z</time>
      </trkpt>
      <trkpt lat="45.12971" lon="5.00245">
        <ele>246</ele>
        <time>2009-02-09T15:31:53Z</time>
      </trkpt>
      <trkpt lat="45.1293" lon="5.00213">
        <ele>230</ele>
        <time>2009-02-09T15:32:00Z</time>
      </trkpt>
      <trkpt lat="45.12848" lon="5.00087">
        <ele>234</ele>
        <time>2009-02-09T15:32:19Z</time>
      </trkpt>
      <trkpt lat="45.12824" lon="5.00063">
        <ele>234</ele>
        <time>2009-02-09T15:32:23Z</time>
      </trkpt>
      <trkpt lat="45.12792" lon="5.00051">
        <ele>234</ele>
        <time>2009-02-09T15:32:28Z</time>
      </trkpt>
      <trkpt lat="45.12757" lon="5.00046">
        <ele>223</ele>
        <time>2009-02-09T15:32:34Z</time>
      </trkpt>
      <trkpt lat="45.1273" lon="5.00034">
        <ele>235</ele>
        <time>2009-02-09T15:32:38Z</time>
      </trkpt>
      <trkpt lat="45.12708" lon="5.00013">
        <ele>220</ele>
        <time>2009-02-09T15:32:42Z</time>
      </trkpt>
      <trkpt lat="45.12672" lon="4.99963">
        <ele>220</ele>
        <time>2009-02-09T15:32:50Z</time>
      </trkpt>
      <trkpt lat="45.12661" lon="4.99936">
        <ele>219</ele>
        <time>2009-02-09T15:32:53Z</time>
      </trkpt>
      <trkpt lat="45.12648" lon="4.99875">
        <ele>219</ele>
        <time>2009-02-09T15:33:00Z</time>
      </trkpt>
      <trkpt lat="45.12639" lon="4.99857">
        <ele>225</ele>
        <time>2009-02-09T15:33:02Z</time>
      </trkpt>
      <trkpt lat="45.12596" lon="4.99804">
        <ele>217</ele>
        <time>2009-02-09T15:33:11Z</time>
      </trkpt>
      <trkpt lat="45.12559" lon="4.99734">
        <ele>226</ele>
        <time>2009-02-09T15:33:21Z</time>
      </trkpt>
      <trkpt lat="45.12518" lon="4.9969">
        <ele>226</ele>
        <time>2009-02-09T15:33:28Z</time>
      </trkpt>
      <trkpt lat="45.1247" lon="4.99623">
        <ele>246</ele>
        <time>2009-02-09T15:33:39Z</time>
      </trkpt>
      <trkpt lat="45.12405" lon="4.99517">
        <ele>235</ele>
        <time>2009-02-09T15:33:54Z</time>
      </trkpt>
      <trkpt lat="45.12395" lon="4.99491">
        <ele>235</ele>
        <time>2009-02-09T15:33:57Z</time>
      </trkpt>
      <trkpt lat="45.12384" lon="4.99441">
        <ele>239</ele>
        <time>2009-02-09T15:34:03Z</time>
      </trkpt>
      <trkpt lat="45.12352" lon="4.99269">
        <ele>225</ele>
        <time>2009-02-09T15:34:22Z</time>
      </trkpt>
      <trkpt lat="45.12278" lon="4.9908">
        <ele>216</ele>
        <time>2009-02-09T15:34:46Z</time>
      </trkpt>
      <trkpt lat="45.12269" lon="4.99067">
        <ele>216</ele>
        <time>2009-02-09T15:34:48Z</time>
      </trkpt>
      <trkpt lat="45.12242" lon="4.99055">
        <ele>216</ele>
        <time>2009-02-09T15:34:52Z</time>
      </trkpt>
      <trkpt lat="45.12244" lon="4.99043">
        <ele>216</ele>
        <time>2009-02-09T15:34:53Z</time>
      </trkpt>
      <trkpt lat="45.12238" lon="4.99023">
        <ele>220</ele>
        <time>2009-02-09T15:34:56Z</time>
      </trkpt>
      <trkpt lat="45.12226" lon="4.99019">
        <ele>220</ele>
        <time>2009-02-09T15:34:57Z</time>
      </trkpt>
      <trkpt lat="45.12215" lon="4.99027">
        <ele>220</ele>
        <time>2009-02-09T15:34:59Z</time>
      </trkpt>
      <trkpt lat="45.12161" lon="4.98968">
        <ele>207</ele>
        <time>2009-02-09T15:35:10Z</time>
      </trkpt>
      <trkpt lat="45.12103" lon="4.98886">
        <ele>203</ele>
        <time>2009-02-09T15:35:22Z</time>
      </trkpt>
      <trkpt lat="45.12093" lon="4.9889">
        <ele>203</ele>
        <time>2009-02-09T15:35:24Z</time>
      </trkpt>
    </trkseg>
  </trk>
</gpx>